Observation data for Fort McKavett on 01/22/2019      Previous  Date  Next       Current Mesonet Observations  Soil Data  Daily Summary Page  Observations in Plain Language
KMC1 220600Z 15008G13KT 12/10 A2982 RMK A01 T01170095  RH  087%=      5-min Rain = 0
KMC1 220601Z 16013G18KT 12/10 A2982 RMK A01 T01170096  RH  087%=      5-min Rain = 0
KMC1 220602Z 16013G20KT 12/10 A2982 RMK A01 T01160096  RH  087%=      5-min Rain = 0
KMC1 220603Z 15009G15KT 12/10 A2982 RMK A01 T01160096  RH  087%=      5-min Rain = 0
KMC1 220604Z 15010G15KT 12/10 A2982 RMK A01 T01170096  RH  087%=      5-min Rain = 0
KMC1 220605Z 15010KT 12/10 A2982 RMK A01 T01160096  RH  087%=      5-min Rain = 0
KMC1 220606Z 16009G15KT 12/10 A2982 RMK A01 T01160096  RH  087%=      5-min Rain = 0
KMC1 220607Z 17010G15KT 12/10 A2982 RMK A01 T01160096  RH  087%=      5-min Rain = 0
KMC1 220608Z 15008G13KT 12/10 A2982 RMK A01 T01160096  RH  088%=      5-min Rain = 0
KMC1 220609Z 15008KT 12/10 A2982 RMK A01 T01160096  RH  087%=      5-min Rain = 0
KMC1 220610Z 16008KT 12/10 A2982 RMK A01 T01160096  RH  088%=      5-min Rain = 0
KMC1 220611Z 16010KT 12/10 A2982 RMK A01 T01160096  RH  088%=      5-min Rain = 0
KMC1 220612Z 16008G13KT 12/10 A2982 RMK A01 T01160096  RH  088%=      5-min Rain = 0
KMC1 220613Z 15007KT 12/10 A2982 RMK A01 T01160096  RH  088%=      5-min Rain = 0
KMC1 220614Z 17010G15KT 12/10 A2982 RMK A01 T01160096  RH  088%=      5-min Rain = 0
KMC1 220615Z 16012G17KT 12/10 A2983 RMK A01 T01160096  RH  088%=      5-min Rain = 0
KMC1 220616Z 16012G18KT 12/10 A2983 RMK A01 T01160096  RH  088%=      5-min Rain = 0
KMC1 220617Z 16011KT 12/10 A2982 RMK A01 T01160096  RH  087%=      5-min Rain = 0
KMC1 220618Z 16012G19KT 12/10 A2982 RMK A01 T01160096  RH  087%=      5-min Rain = 0
KMC1 220619Z 15011KT 12/10 A2982 RMK A01 T01170096  RH  087%=      5-min Rain = 0
KMC1 220620Z 16009KT 12/10 A2982 RMK A01 T01170096  RH  087%=      5-min Rain = 0
KMC1 220621Z 16008KT 12/10 A2982 RMK A01 T01170096  RH  087%=      5-min Rain = 0
KMC1 220622Z 16009KT 12/10 A2982 RMK A01 T01170096  RH  087%=      5-min Rain = 0
KMC1 220623Z 16010KT 12/10 A2982 RMK A01 T01160096  RH  087%=      5-min Rain = 0
KMC1 220624Z 16010G16KT 12/10 A2982 RMK A01 T01160096  RH  088%=      5-min Rain = 0
KMC1 220625Z 16009KT 12/10 A2982 RMK A01 T01160096  RH  088%=      5-min Rain = 0
KMC1 220626Z 16010G15KT 12/10 A2982 RMK A01 T01160096  RH  087%=      5-min Rain = 0
KMC1 220627Z 16013KT 12/10 A2982 RMK A01 T01160096  RH  088%=      5-min Rain = 0
KMC1 220628Z 15011G16KT 12/10 A2982 RMK A01 T01170097  RH  088%=      5-min Rain = 0
KMC1 220629Z 15009G16KT 12/10 A2982 RMK A01 T01170096  RH  087%=      5-min Rain = 0
KMC1 220630Z 15011G18KT 12/10 A2982 RMK A01 T01170096  RH  087%=      5-min Rain = 0
KMC1 220631Z 16014KT 12/10 A2982 RMK A01 T01170097  RH  087%=      5-min Rain = 0
KMC1 220632Z 16013G19KT 12/10 A2982 RMK A01 T01180096  RH  087%=      5-min Rain = 0
KMC1 220633Z 16012G18KT 12/10 A2982 RMK A01 T01180096  RH  087%=      5-min Rain = 0
KMC1 220634Z 16013G18KT 12/10 A2982 RMK A01 T01180097  RH  087%=      5-min Rain = 0
KMC1 220635Z 17010KT 12/10 A2982 RMK A01 T01180097  RH  086%=      5-min Rain = 0
KMC1 220636Z 17014KT 12/10 A2982 RMK A01 T01190096  RH  086%=      5-min Rain = 0
KMC1 220637Z 16011G17KT 12/10 A2982 RMK A01 T01190096  RH  086%=      5-min Rain = 0
KMC1 220638Z 17012G17KT 12/10 A2982 RMK A01 T01190096  RH  086%=      5-min Rain = 0
KMC1 220639Z 16009KT 12/10 A2982 RMK A01 T01190096  RH  086%=      5-min Rain = 0
KMC1 220640Z 16007KT 12/10 A2982 RMK A01 T01180096  RH  086%=      5-min Rain = 0
KMC1 220641Z 16008G14KT 12/10 A2982 RMK A01 T01170095  RH  087%=      5-min Rain = 0
KMC1 220642Z 15013G18KT 12/10 A2982 RMK A01 T01170096  RH  087%=      5-min Rain = 0
KMC1 220643Z 16010G16KT 12/10 A2982 RMK A01 T01170096  RH  087%=      5-min Rain = 0
KMC1 220644Z 16009G16KT 12/10 A2981 RMK A01 T01170096  RH  087%=      5-min Rain = 0
KMC1 220645Z 16014G24KT 12/10 A2981 RMK A01 T01170096  RH  087%=      5-min Rain = 0
KMC1 220646Z 15013KT 12/10 A2981 RMK A01 T01170096  RH  087%=      5-min Rain = 0
KMC1 220647Z 16010G15KT 12/10 A2981 RMK A01 T01180096  RH  087%=      5-min Rain = 0
KMC1 220648Z 16013G19KT 12/10 A2981 RMK A01 T01180096  RH  087%=      5-min Rain = 0
KMC1 220649Z 16010G16KT 12/10 A2981 RMK A01 T01180097  RH  087%=      5-min Rain = 0
KMC1 220650Z 17011G16KT 12/10 A2981 RMK A01 T01180096  RH  087%=      5-min Rain = 0
KMC1 220651Z 16012G18KT 12/10 A2981 RMK A01 T01180096  RH  087%=      5-min Rain = 0
KMC1 220652Z 16014G19KT 12/10 A2981 RMK A01 T01180096  RH  087%=      5-min Rain = 0
KMC1 220653Z 16015G21KT 12/10 A2981 RMK A01 T01180096  RH  086%=      5-min Rain = 0
KMC1 220654Z 16013G18KT 12/10 A2981 RMK A01 T01190096  RH  086%=      5-min Rain = 0
KMC1 220655Z 16013KT 12/10 A2981 RMK A01 T01190096  RH  086%=      5-min Rain = 0
KMC1 220656Z 16013G18KT 12/10 A2981 RMK A01 T01190096  RH  086%=      5-min Rain = 0
KMC1 220657Z 16015G23KT 12/10 A2981 RMK A01 T01190096  RH  086%=      5-min Rain = 0
KMC1 220658Z 17015G20KT 12/10 A2981 RMK A01 T01190096  RH  086%=      5-min Rain = 0
KMC1 220659Z 16013KT 12/10 A2981 RMK A01 T01190096  RH  086%=      5-min Rain = 0
KMC1 220700Z 17013KT 12/10 A2981 RMK A01 T01190096  RH  086%=      5-min Rain = 0
KMC1 220701Z 17012KT 12/10 A2981 RMK A01 T01190096  RH  086%=      5-min Rain = 0
KMC1 220702Z 16015G20KT 12/10 A2981 RMK A01 T01190096  RH  086%=      5-min Rain = 0
KMC1 220703Z 17017G22KT 12/10 A2981 RMK A01 T01190096  RH  086%=      5-min Rain = 0
KMC1 220704Z 16013KT 12/10 A2981 RMK A01 T01200096  RH  085%=      5-min Rain = 0
KMC1 220705Z 17009G15KT 12/10 A2981 RMK A01 T01200096  RH  085%=      5-min Rain = 0
KMC1 220706Z 16010KT 12/10 A2981 RMK A01 T01200096  RH  085%=      5-min Rain = 0
KMC1 220707Z 16010G19KT 12/10 A2981 RMK A01 T01190096  RH  086%=      5-min Rain = 0
KMC1 220708Z 16014G19KT 12/10 A2981 RMK A01 T01190096  RH  086%=      5-min Rain = 0
KMC1 220709Z 17018KT 12/10 A2981 RMK A01 T01190096  RH  086%=      5-min Rain = 0
KMC1 220710Z 17011G17KT 12/10 A2981 RMK A01 T01190096  RH  085%=      5-min Rain = 0
KMC1 220711Z 17014KT 12/10 A2981 RMK A01 T01190096  RH  085%=      5-min Rain = 0
KMC1 220712Z 17013G18KT 12/10 A2981 RMK A01 T01200096  RH  085%=      5-min Rain = 0
KMC1 220713Z 17013KT 12/10 A2981 RMK A01 T01200096  RH  085%=      5-min Rain = 0
KMC1 220714Z 17010KT 12/10 A2981 RMK A01 T01200096  RH  086%=      5-min Rain = 0
KMC1 220715Z 17011KT 12/10 A2981 RMK A01 T01190096  RH  086%=      5-min Rain = 0
KMC1 220716Z 17014KT 12/10 A2981 RMK A01 T01190096  RH  086%=      5-min Rain = 0
KMC1 220717Z 17014G20KT 12/10 A2981 RMK A01 T01190096  RH  086%=      5-min Rain = 0
KMC1 220718Z 16013G18KT 12/10 A2981 RMK A01 T01190096  RH  085%=      5-min Rain = 0
KMC1 220719Z 16014G19KT 12/10 A2981 RMK A01 T01200096  RH  085%=      5-min Rain = 0
KMC1 220720Z 17015G20KT 12/10 A2981 RMK A01 T01200096  RH  085%=      5-min Rain = 0
KMC1 220721Z 16011G24KT 12/10 A2981 RMK A01 T01190096  RH  085%=      5-min Rain = 0
KMC1 220722Z 16014G22KT 12/10 A2981 RMK A01 T01200096  RH  085%=      5-min Rain = 0
KMC1 220723Z 16015G20KT 12/10 A2981 RMK A01 T01200096  RH  085%=      5-min Rain = 0
KMC1 220724Z 16012G19KT 12/10 A2981 RMK A01 T01190096  RH  085%=      5-min Rain = 0
KMC1 220725Z 16013G19KT 12/10 A2981 RMK A01 T01200096  RH  085%=      5-min Rain = 0
KMC1 220726Z 16014G19KT 12/10 A2981 RMK A01 T01200096  RH  085%=      5-min Rain = 0
KMC1 220727Z 16013G19KT 12/10 A2981 RMK A01 T01200096  RH  085%=      5-min Rain = 0
KMC1 220728Z 16011G17KT 12/10 A2981 RMK A01 T01200096  RH  085%=      5-min Rain = 0
KMC1 220729Z 16014G21KT 12/10 A2981 RMK A01 T01200096  RH  085%=      5-min Rain = 0
KMC1 220730Z 17011KT 12/10 A2981 RMK A01 T01190095  RH  085%=      5-min Rain = 0
KMC1 220731Z 17013G19KT 12/10 A2981 RMK A01 T01200096  RH  085%=      5-min Rain = 0
KMC1 220732Z 17016KT 12/10 A2981 RMK A01 T01190096  RH  085%=      5-min Rain = 0
KMC1 220733Z 17015G20KT 12/10 A2981 RMK A01 T01190096  RH  085%=      5-min Rain = 0
KMC1 220734Z 16014KT 12/10 A2981 RMK A01 T01200096  RH  085%=      5-min Rain = 0
KMC1 220735Z 16014KT 12/10 A2981 RMK A01 T01200096  RH  085%=      5-min Rain = 0
KMC1 220736Z 16013KT 12/10 A2981 RMK A01 T01200095  RH  085%=      5-min Rain = 0
KMC1 220737Z 17011KT 12/10 A2981 RMK A01 T01200096  RH  085%=      5-min Rain = 0
KMC1 220738Z 16009G16KT 12/10 A2981 RMK A01 T01200096  RH  085%=      5-min Rain = 0
KMC1 220739Z 17011G17KT 12/10 A2981 RMK A01 T01200095  RH  085%=      5-min Rain = 0
KMC1 220740Z 16011G17KT 12/10 A2981 RMK A01 T01200096  RH  085%=      5-min Rain = 0
KMC1 220741Z 17013G20KT 12/10 A2981 RMK A01 T01200096  RH  085%=      5-min Rain = 0
KMC1 220742Z 16013KT 12/10 A2981 RMK A01 T01190095  RH  085%=      5-min Rain = 0
KMC1 220743Z 16010KT 12/10 A2981 RMK A01 T01190096  RH  085%=      5-min Rain = 0
KMC1 220744Z 16013G18KT 12/10 A2981 RMK A01 T01190095  RH  085%=      5-min Rain = 0
KMC1 220745Z 17014KT 12/10 A2981 RMK A01 T01190095  RH  085%=      5-min Rain = 0
KMC1 220746Z 17014KT 12/10 A2981 RMK A01 T01190096  RH  085%=      5-min Rain = 0
KMC1 220747Z 17014G20KT 12/10 A298 RMK A01 T01200096  RH  085%=      5-min Rain = 0
KMC1 220748Z 16011G17KT 12/10 A298 RMK A01 T01200095  RH  085%=      5-min Rain = 0
KMC1 220749Z 16012KT 12/10 A298 RMK A01 T01200095  RH  085%=      5-min Rain = 0
KMC1 220750Z 17011G19KT 12/10 A2981 RMK A01 T01200096  RH  085%=      5-min Rain = 0
KMC1 220751Z 17015KT 12/10 A298 RMK A01 T01200096  RH  085%=      5-min Rain = 0
KMC1 220752Z 16016G25KT 12/10 A298 RMK A01 T01200096  RH  085%=      5-min Rain = 0
KMC1 220753Z 17016G22KT 12/10 A298 RMK A01 T01200096  RH  085%=      5-min Rain = 0
KMC1 220754Z 16012KT 12/10 A2981 RMK A01 T01200096  RH  085%=      5-min Rain = 0
KMC1 220755Z 17009KT 12/10 A2981 RMK A01 T01200096  RH  085%=      5-min Rain = 0
KMC1 220756Z 16009G14KT 12/10 A2981 RMK A01 T01200096  RH  085%=      5-min Rain = 0
KMC1 220757Z 17013G25KT 12/10 A298 RMK A01 T01190096  RH  085%=      5-min Rain = 0
KMC1 220758Z 16016G21KT 12/10 A298 RMK A01 T01190096  RH  086%=      5-min Rain = 0
KMC1 220759Z 17015G22KT 12/10 A298 RMK A01 T01190096  RH  086%=      5-min Rain = 0
KMC1 220800Z 17009KT 12/10 A298 RMK A01 T01200096  RH  085%=      5-min Rain = 0
KMC1 220801Z 17011G17KT 12/10 A298 RMK A01 T01200096  RH  085%=      5-min Rain = 0
KMC1 220802Z 16010KT 12/10 A298 RMK A01 T01190096  RH  086%=      5-min Rain = 0
KMC1 220803Z 15011KT 12/10 A298 RMK A01 T01190096  RH  086%=      5-min Rain = 0
KMC1 220804Z 16010G18KT 12/10 A298 RMK A01 T01190096  RH  086%=      5-min Rain = 0
KMC1 220805Z 17016G21KT 12/10 A298 RMK A01 T01180096  RH  086%=      5-min Rain = 0
KMC1 220806Z 16015KT 12/10 A298 RMK A01 T01190096  RH  086%=      5-min Rain = 0
KMC1 220807Z 17011KT 12/10 A298 RMK A01 T01190096  RH  086%=      5-min Rain = 0
KMC1 220808Z 17015G22KT 12/10 A298 RMK A01 T01190096  RH  086%=      5-min Rain = 0
KMC1 220809Z 16011G16KT 12/10 A298 RMK A01 T01190096  RH  086%=      5-min Rain = 0
KMC1 220810Z 16013KT 12/10 A298 RMK A01 T01190096  RH  086%=      5-min Rain = 0
KMC1 220811Z 16011G16KT 12/10 A298 RMK A01 T01190096  RH  086%=      5-min Rain = 0
KMC1 220812Z 16016G23KT 12/10 A298 RMK A01 T01190096  RH  086%=      5-min Rain = 0
KMC1 220813Z 16014KT 12/10 A298 RMK A01 T01190096  RH  086%=      5-min Rain = 0
KMC1 220814Z 16013KT 12/10 A298 RMK A01 T01200096  RH  086%=      5-min Rain = 0
KMC1 220815Z 16011KT 12/10 A298 RMK A01 T01200096  RH  086%=      5-min Rain = 0
KMC1 220816Z 17015G21KT 12/10 A2979 RMK A01 T01190096  RH  086%=      5-min Rain = 0
KMC1 220817Z 17012G17KT 12/10 A2979 RMK A01 T01200097  RH  086%=      5-min Rain = 0
KMC1 220818Z 16014KT 12/10 A2979 RMK A01 T01200097  RH  086%=      5-min Rain = 0
KMC1 220819Z 16012G18KT 12/10 A298 RMK A01 T01200097  RH  086%=      5-min Rain = 0
KMC1 220820Z 17016G22KT 12/10 A2979 RMK A01 T01200097  RH  086%=      5-min Rain = 0
KMC1 220821Z 16015G23KT 12/10 A2979 RMK A01 T01190096  RH  086%=      5-min Rain = 0
KMC1 220822Z 16016G24KT 12/10 A2979 RMK A01 T01190096  RH  086%=      5-min Rain = 0
KMC1 220823Z 17015G23KT 12/10 A2979 RMK A01 T01200096  RH  086%=      5-min Rain = 0
KMC1 220824Z 16014G19KT 12/10 A2979 RMK A01 T01200097  RH  085%=      5-min Rain = 0
KMC1 220825Z 17013G20KT 12/10 A298 RMK A01 T01200096  RH  085%=      5-min Rain = 0
KMC1 220826Z 16014G21KT 12/10 A298 RMK A01 T01200096  RH  085%=      5-min Rain = 0
KMC1 220827Z 16012G19KT 12/10 A298 RMK A01 T01200097  RH  086%=      5-min Rain = 0
KMC1 220828Z 17010G15KT 12/10 A2979 RMK A01 T01200097  RH  086%=      5-min Rain = 0
KMC1 220829Z 17014G20KT 12/10 A2979 RMK A01 T01190096  RH  086%=      5-min Rain = 0
KMC1 220830Z 17014KT 12/10 A298 RMK A01 T01200097  RH  086%=      5-min Rain = 0
KMC1 220831Z 17012KT 12/10 A298 RMK A01 T01200096  RH  086%=      5-min Rain = 0
KMC1 220832Z 16011G19KT 12/10 A298 RMK A01 T01190096  RH  086%=      5-min Rain = 0
KMC1 220833Z 16019G25KT 12/10 A2979 RMK A01 T01200097  RH  086%=      5-min Rain = 0
KMC1 220834Z 17019G26KT 12/10 A2979 RMK A01 T01200097  RH  086%=      5-min Rain = 0
KMC1 220835Z 16017G22KT 12/10 A298 RMK A01 T01210097  RH  085%=      5-min Rain = 0
KMC1 220836Z 17012G17KT 12/10 A298 RMK A01 T01210097  RH  085%=      5-min Rain = 0
KMC1 220837Z 17010G16KT 12/10 A298 RMK A01 T01210096  RH  085%=      5-min Rain = 0
KMC1 220838Z 17015G21KT 12/10 A2979 RMK A01 T01200097  RH  086%=      5-min Rain = 0
KMC1 220839Z 17015G20KT 12/10 A2979 RMK A01 T01200097  RH  086%=      5-min Rain = 0
KMC1 220840Z 17013G19KT 12/10 A2979 RMK A01 T01200097  RH  086%=      5-min Rain = 0
KMC1 220841Z 17014KT 12/10 A2979 RMK A01 T01200096  RH  085%=      5-min Rain = 0
KMC1 220842Z 17014KT 12/10 A298 RMK A01 T01200097  RH  085%=      5-min Rain = 0
KMC1 220843Z 17011KT 12/10 A2979 RMK A01 T01200096  RH  085%=      5-min Rain = 0
KMC1 220844Z 17015G21KT 12/10 A2979 RMK A01 T01200097  RH  086%=      5-min Rain = 0
KMC1 220845Z 17012G18KT 12/10 A298 RMK A01 T01200097  RH  086%=      5-min Rain = 0
KMC1 220846Z 17013G21KT 12/10 A298 RMK A01 T01200097  RH  086%=      5-min Rain = 0
KMC1 220847Z 17012KT 12/10 A298 RMK A01 T01200097  RH  086%=      5-min Rain = 0
KMC1 220848Z 16013KT 12/10 A2979 RMK A01 T01200097  RH  086%=      5-min Rain = 0
KMC1 220849Z 17014G19KT 12/10 A2979 RMK A01 T01200097  RH  086%=      5-min Rain = 0
KMC1 220850Z 17011KT 12/10 A2979 RMK A01 T01200097  RH  086%=      5-min Rain = 0
KMC1 220851Z 17011KT 12/10 A2979 RMK A01 T01200097  RH  086%=      5-min Rain = 0
KMC1 220852Z 17010G15KT 12/10 A2979 RMK A01 T01200097  RH  086%=      5-min Rain = 0
KMC1 220853Z 16016G24KT 12/10 A2979 RMK A01 T01200097  RH  086%=      5-min Rain = 0
KMC1 220854Z 16014KT 12/10 A2979 RMK A01 T01200097  RH  086%=      5-min Rain = 0
KMC1 220855Z 16015KT 12/10 A2979 RMK A01 T01200097  RH  086%=      5-min Rain = 0
KMC1 220856Z 17014G22KT 12/10 A2979 RMK A01 T01210097  RH  085%=      5-min Rain = 0
KMC1 220857Z 17015G21KT 12/10 A2979 RMK A01 T01210097  RH  085%=      5-min Rain = 0
KMC1 220858Z 17012KT 12/10 A2979 RMK A01 T01210097  RH  085%=      5-min Rain = 0
KMC1 220859Z 17016G23KT 12/10 A2979 RMK A01 T01210097  RH  085%=      5-min Rain = 0
KMC1 220900Z 18014KT 12/10 A2979 RMK A01 T01210097  RH  085%=      5-min Rain = 0
KMC1 220901Z 16011G16KT 12/10 A2979 RMK A01 T01210097  RH  085%=      5-min Rain = 0
KMC1 220902Z 17010G16KT 12/10 A2979 RMK A01 T01210097  RH  085%=      5-min Rain = 0
KMC1 220903Z 16011G16KT 12/10 A2979 RMK A01 T01210097  RH  085%=      5-min Rain = 0
KMC1 220904Z 17010KT 12/10 A2979 RMK A01 T01210097  RH  085%=      5-min Rain = 0
KMC1 220905Z 17010KT 12/10 A2979 RMK A01 T01210097  RH  085%=      5-min Rain = 0
KMC1 220906Z 17011G16KT 12/10 A2979 RMK A01 T01210097  RH  086%=      5-min Rain = 0
KMC1 220907Z 17014KT 12/10 A2979 RMK A01 T01210097  RH  086%=      5-min Rain = 0
KMC1 220908Z 16014KT 12/10 A2979 RMK A01 T01210097  RH  086%=      5-min Rain = 0
KMC1 220909Z 17015G23KT 12/10 A2979 RMK A01 T01210097  RH  085%=      5-min Rain = 0
KMC1 220910Z 16011KT 12/10 A2979 RMK A01 T01210097  RH  085%=      5-min Rain = 0
KMC1 220911Z 17009KT 12/10 A2979 RMK A01 T01220097  RH  085%=      5-min Rain = 0
KMC1 220912Z 17012G18KT 12/10 A2979 RMK A01 T01210097  RH  085%=      5-min Rain = 0
KMC1 220913Z 17012KT 12/10 A2979 RMK A01 T01210097  RH  085%=      5-min Rain = 0
KMC1 220914Z 16010G15KT 12/10 A2979 RMK A01 T01210097  RH  085%=      5-min Rain = 0
KMC1 220915Z 17015G22KT 12/10 A2979 RMK A01 T01210097  RH  085%=      5-min Rain = 0
KMC1 220916Z 17014G19KT 12/10 A2979 RMK A01 T01210098  RH  085%=      5-min Rain = 0
KMC1 220917Z 16013G19KT 12/10 A2979 RMK A01 T01210097  RH  085%=      5-min Rain = 0
KMC1 220918Z 17014KT 12/10 A2979 RMK A01 T01210097  RH  085%=      5-min Rain = 0
KMC1 220919Z 18014KT 12/10 A2979 RMK A01 T01220097  RH  085%=      5-min Rain = 0
KMC1 220920Z 18012KT 12/10 A2979 RMK A01 T01220098  RH  085%=      5-min Rain = 0
KMC1 220921Z 17011KT 12/10 A2979 RMK A01 T01220098  RH  085%=      5-min Rain = 0
KMC1 220922Z 17012G18KT 12/10 A2979 RMK A01 T01220098  RH  085%=      5-min Rain = 0
KMC1 220923Z 17009G14KT 12/10 A2979 RMK A01 T01210097  RH  085%=      5-min Rain = 0
KMC1 220924Z 17008KT 12/10 A2979 RMK A01 T01220098  RH  085%=      5-min Rain = 0
KMC1 220925Z 17009G14KT 12/10 A2979 RMK A01 T01210097  RH  085%=      5-min Rain = 0
KMC1 220926Z 17010KT 12/10 A2978 RMK A01 T01210098  RH  086%=      5-min Rain = 0
KMC1 220927Z 16012G20KT 12/10 A2978 RMK A01 T01210098  RH  086%=      5-min Rain = 0
KMC1 220928Z 17012KT 12/10 A2978 RMK A01 T01210098  RH  086%=      5-min Rain = 0
KMC1 220929Z 17012KT 12/10 A2978 RMK A01 T01210098  RH  085%=      5-min Rain = 0
KMC1 220930Z 17014G20KT 12/10 A2978 RMK A01 T01210097  RH  085%=      5-min Rain = 0
KMC1 220931Z 17012G17KT 12/10 A2978 RMK A01 T01220097  RH  085%=      5-min Rain = 0
KMC1 220932Z 18014G19KT 12/10 A2978 RMK A01 T01220098  RH  085%=      5-min Rain = 0
KMC1 220933Z 17013KT 12/10 A2978 RMK A01 T01220098  RH  085%=      5-min Rain = 0
KMC1 220934Z 18009KT 12/10 A2978 RMK A01 T01220098  RH  085%=      5-min Rain = 0
KMC1 220935Z 17011KT 12/10 A2978 RMK A01 T01220098  RH  085%=      5-min Rain = 0
KMC1 220936Z 18013G19KT 12/10 A2978 RMK A01 T01220098  RH  085%=      5-min Rain = 0
KMC1 220937Z 16013G18KT 12/10 A2979 RMK A01 T01220098  RH  085%=      5-min Rain = 0
KMC1 220938Z 18018G25KT 12/10 A2979 RMK A01 T01220098  RH  085%=      5-min Rain = 0
KMC1 220939Z 16014KT 12/10 A2978 RMK A01 T01220098  RH  085%=      5-min Rain = 0
KMC1 220940Z 17012KT 12/10 A2978 RMK A01 T01230098  RH  085%=      5-min Rain = 0
KMC1 220941Z 17012G22KT 12/10 A2978 RMK A01 T01230097  RH  085%=      5-min Rain = 0
KMC1 220942Z 17014G19KT 12/10 A2978 RMK A01 T01230098  RH  085%=      5-min Rain = 0
KMC1 220943Z 17012KT 12/10 A2978 RMK A01 T01230098  RH  085%=      5-min Rain = 0
KMC1 220944Z 17016G21KT 12/10 A2978 RMK A01 T01230098  RH  085%=      5-min Rain = 0
KMC1 220945Z 17013G18KT 12/10 A2978 RMK A01 T01230098  RH  085%=      5-min Rain = 0
KMC1 220946Z 16018G23KT 12/10 A2978 RMK A01 T01230098  RH  085%=      5-min Rain = 0
KMC1 220947Z 16013G18KT 12/10 A2978 RMK A01 T01230098  RH  085%=      5-min Rain = 0
KMC1 220948Z 17014G21KT 12/10 A2978 RMK A01 T01230098  RH  084%=      5-min Rain = 0
KMC1 220949Z 17015G20KT 12/10 A2978 RMK A01 T01230098  RH  085%=      5-min Rain = 0
KMC1 220950Z 17011KT 12/10 A2978 RMK A01 T01230098  RH  085%=      5-min Rain = 0
KMC1 220951Z 17010KT 12/10 A2978 RMK A01 T01230098  RH  085%=      5-min Rain = 0
KMC1 220952Z 17011KT 12/10 A2978 RMK A01 T01230098  RH  085%=      5-min Rain = 0
KMC1 220953Z 16012G17KT 12/10 A2978 RMK A01 T01220098  RH  085%=      5-min Rain = 0
KMC1 220954Z 17011G19KT 12/10 A2978 RMK A01 T01230098  RH  085%=      5-min Rain = 0
KMC1 220955Z 17012G17KT 12/10 A2978 RMK A01 T01220098  RH  085%=      5-min Rain = 0
KMC1 220956Z 17013G19KT 12/10 A2978 RMK A01 T01220098  RH  085%=      5-min Rain = 0
KMC1 220957Z 17011KT 12/10 A2978 RMK A01 T01220098  RH  085%=      5-min Rain = 0
KMC1 220958Z 16017G22KT 12/10 A2978 RMK A01 T01220098  RH  085%=      5-min Rain = 0
KMC1 220959Z 17013KT 12/10 A2978 RMK A01 T01230098  RH  085%=      5-min Rain = 0
KMC1 221000Z 17014G19KT 12/10 A2978 RMK A01 T01230098  RH  084%=      5-min Rain = 0
KMC1 221001Z 16015KT 12/10 A2978 RMK A01 T01230098  RH  084%=      5-min Rain = 0
KMC1 221002Z 17013KT 12/10 A2978 RMK A01 T01230098  RH  084%=      5-min Rain = 0
KMC1 221003Z 18012KT 12/10 A2978 RMK A01 T01230097  RH  084%=      5-min Rain = 0
KMC1 221004Z 17015G21KT 12/10 A2978 RMK A01 T01240098  RH  084%=      5-min Rain = 0
KMC1 221005Z 16015G20KT 12/10 A2978 RMK A01 T01230098  RH  085%=      5-min Rain = 0
KMC1 221006Z 17018KT 12/10 A2977 RMK A01 T01230098  RH  084%=      5-min Rain = 0
KMC1 221007Z 16011G18KT 12/10 A2977 RMK A01 T01240098  RH  084%=      5-min Rain = 0
KMC1 221008Z 16011G17KT 12/10 A2977 RMK A01 T01240098  RH  084%=      5-min Rain = 0
KMC1 221009Z 16013G18KT 12/10 A2977 RMK A01 T01230098  RH  085%=      5-min Rain = 0
KMC1 221010Z 17014G19KT 12/10 A2977 RMK A01 T01230098  RH  085%=      5-min Rain = 0
KMC1 221011Z 17012KT 12/10 A2977 RMK A01 T01230098  RH  085%=      5-min Rain = 0
KMC1 221012Z 16014G20KT 12/10 A2977 RMK A01 T01230098  RH  085%=      5-min Rain = 0
KMC1 221013Z 16016KT 12/10 A2977 RMK A01 T01230098  RH  085%=      5-min Rain = 0
KMC1 221014Z 16018G26KT 12/10 A2977 RMK A01 T01230098  RH  085%=      5-min Rain = 0
KMC1 221015Z 17016KT 12/10 A2977 RMK A01 T01240098  RH  084%=      5-min Rain = 0
KMC1 221016Z 16014G19KT 12/10 A2977 RMK A01 T01240098  RH  084%=      5-min Rain = 0
KMC1 221017Z 17014KT 12/10 A2977 RMK A01 T01240098  RH  084%=      5-min Rain = 0
KMC1 221018Z 16016G21KT 12/10 A2977 RMK A01 T01240098  RH  084%=      5-min Rain = 0
KMC1 221019Z 16014G20KT 12/10 A2977 RMK A01 T01240098  RH  084%=      5-min Rain = 0
KMC1 221020Z 16017G22KT 12/10 A2977 RMK A01 T01240098  RH  084%=      5-min Rain = 0
KMC1 221021Z 16014G20KT 12/10 A2977 RMK A01 T01240098  RH  084%=      5-min Rain = 0
KMC1 221022Z 17015G20KT 12/10 A2977 RMK A01 T01240098  RH  084%=      5-min Rain = 0
KMC1 221023Z 17014KT 12/10 A2977 RMK A01 T01240098  RH  084%=      5-min Rain = 0
KMC1 221024Z 17012KT 12/10 A2977 RMK A01 T01240098  RH  084%=      5-min Rain = 0
KMC1 221025Z 17011KT 12/10 A2977 RMK A01 T01240098  RH  085%=      5-min Rain = 0
KMC1 221026Z 17011KT 12/10 A2976 RMK A01 T01230098  RH  085%=      5-min Rain = 0
KMC1 221027Z 16010G16KT 12/10 A2976 RMK A01 T01230098  RH  085%=      5-min Rain = 0
KMC1 221028Z 17011KT 12/10 A2976 RMK A01 T01230098  RH  085%=      5-min Rain = 0
KMC1 221029Z 16012KT 12/10 A2976 RMK A01 T01220098  RH  085%=      5-min Rain = 0
KMC1 221030Z 17012KT 12/10 A2976 RMK A01 T01220098  RH  085%=      5-min Rain = 0
KMC1 221031Z 17014G20KT 12/10 A2976 RMK A01 T01230098  RH  085%=      5-min Rain = 0
KMC1 221032Z 17016G21KT 12/10 A2976 RMK A01 T01220098  RH  085%=      5-min Rain = 0
KMC1 221033Z 17014KT 12/10 A2976 RMK A01 T01220098  RH  085%=      5-min Rain = 0
KMC1 221034Z 17009KT 12/10 A2976 RMK A01 T01230098  RH  085%=      5-min Rain = 0
KMC1 221035Z 16012KT 12/10 A2976 RMK A01 T01230098  RH  085%=      5-min Rain = 0
KMC1 221036Z 17011KT 12/10 A2977 RMK A01 T01230099  RH  085%=      5-min Rain = 0
KMC1 221037Z 17014KT 12/10 A2977 RMK A01 T01230098  RH  085%=      5-min Rain = 0
KMC1 221038Z 18013KT 12/10 A2977 RMK A01 T01230098  RH  085%=      5-min Rain = 0
KMC1 221039Z 16012KT 12/10 A2977 RMK A01 T01230098  RH  085%=      5-min Rain = 0
KMC1 221040Z 17010G15KT 12/10 A2976 RMK A01 T01230098  RH  085%=      5-min Rain = 0
KMC1 221041Z 16014G19KT 12/10 A2976 RMK A01 T01230098  RH  085%=      5-min Rain = 0
KMC1 221042Z 16013KT 12/10 A2976 RMK A01 T01230098  RH  085%=      5-min Rain = 0
KMC1 221043Z 16013KT 12/10 A2976 RMK A01 T01230098  RH  085%=      5-min Rain = 0
KMC1 221044Z 17014KT 12/10 A2976 RMK A01 T01230098  RH  085%=      5-min Rain = 0
KMC1 221045Z 17013KT 12/10 A2977 RMK A01 T01230098  RH  085%=      5-min Rain = 0
KMC1 221046Z 17017G23KT 12/10 A2976 RMK A01 T01230098  RH  085%=      5-min Rain = 0
KMC1 221047Z 16015G20KT 12/10 A2977 RMK A01 T01230098  RH  085%=      5-min Rain = 0
KMC1 221048Z 17011G16KT 12/10 A2977 RMK A01 T01230098  RH  084%=      5-min Rain = 0
KMC1 221049Z 17016KT 12/10 A2977 RMK A01 T01230098  RH  084%=      5-min Rain = 0
KMC1 221050Z 17017G22KT 12/10 A2976 RMK A01 T01230098  RH  084%=      5-min Rain = 0
KMC1 221051Z 16011KT 12/10 A2976 RMK A01 T01230098  RH  084%=      5-min Rain = 0
KMC1 221052Z 16011G17KT 12/10 A2976 RMK A01 T01230098  RH  084%=      5-min Rain = 0
KMC1 221053Z 16012G20KT 12/10 A2976 RMK A01 T01230098  RH  085%=      5-min Rain = 0
KMC1 221054Z 16020G25KT 12/10 A2976 RMK A01 T01230098  RH  085%=      5-min Rain = 0
KMC1 221055Z 16016G21KT 12/10 A2976 RMK A01 T01230098  RH  084%=      5-min Rain = 0
KMC1 221056Z 16012G18KT 12/10 A2976 RMK A01 T01230098  RH  084%=      5-min Rain = 0
KMC1 221057Z 16012KT 12/10 A2976 RMK A01 T01230097  RH  084%=      5-min Rain = 0
KMC1 221058Z 16012G18KT 12/10 A2976 RMK A01 T01230097  RH  084%=      5-min Rain = 0
KMC1 221059Z 16011KT 12/10 A2976 RMK A01 T01230098  RH  084%=      5-min Rain = 0
KMC1 221100Z 16011G18KT 12/10 A2976 RMK A01 T01230098  RH  085%=      5-min Rain = 0
KMC1 221101Z 16012G17KT 12/10 A2976 RMK A01 T01230098  RH  085%=      5-min Rain = 0
KMC1 221102Z 16012KT 12/10 A2976 RMK A01 T01220098  RH  085%=      5-min Rain = 0
KMC1 221103Z 16011G16KT 12/10 A2976 RMK A01 T01230098  RH  085%=      5-min Rain = 0
KMC1 221104Z 17009KT 12/10 A2976 RMK A01 T01220098  RH  085%=      5-min Rain = 0
KMC1 221105Z 16016G22KT 12/10 A2976 RMK A01 T01220098  RH  085%=      5-min Rain = 0
KMC1 221106Z 15015G22KT 12/10 A2976 RMK A01 T01220098  RH  085%=      5-min Rain = 0
KMC1 221107Z 15014KT 12/10 A2976 RMK A01 T01220098  RH  085%=      5-min Rain = 0
KMC1 221108Z 16014G19KT 12/10 A2975 RMK A01 T01220097  RH  085%=      5-min Rain = 0
KMC1 221109Z 15011G17KT 12/10 A2975 RMK A01 T01220097  RH  085%=      5-min Rain = 0
KMC1 221110Z 16015KT 12/10 A2975 RMK A01 T01220098  RH  085%=      5-min Rain = 0
KMC1 221111Z 16012G17KT 12/10 A2975 RMK A01 T01220098  RH  085%=      5-min Rain = 0
KMC1 221112Z 15013G19KT 12/10 A2975 RMK A01 T01220097  RH  085%=      5-min Rain = 0
KMC1 221113Z 16012G22KT 12/10 A2975 RMK A01 T01220097  RH  085%=      5-min Rain = 0
KMC1 221114Z 15016G21KT 12/10 A2974 RMK A01 T01220098  RH  085%=      5-min Rain = 0
KMC1 221115Z 15017G22KT 12/10 A2974 RMK A01 T01210097  RH  085%=      5-min Rain = 0
KMC1 221116Z 15016G22KT 12/10 A2974 RMK A01 T01220097  RH  085%=      5-min Rain = 0
KMC1 221117Z 15014G19KT 12/10 A2974 RMK A01 T01220097  RH  085%=      5-min Rain = 0
KMC1 221118Z 16010G16KT 12/10 A2974 RMK A01 T01220097  RH  085%=      5-min Rain = 0
KMC1 221119Z 16013KT 12/10 A2974 RMK A01 T01220097  RH  085%=      5-min Rain = 0
KMC1 221120Z 16014G21KT 12/10 A2974 RMK A01 T01220098  RH  085%=      5-min Rain = 0
KMC1 221121Z 16013KT 12/10 A2974 RMK A01 T01220098  RH  085%=      5-min Rain = 0
KMC1 221122Z 16014G22KT 12/10 A2974 RMK A01 T01220098  RH  085%=      5-min Rain = 0
KMC1 221123Z 17013KT 12/10 A2974 RMK A01 T01210097  RH  085%=      5-min Rain = 0
KMC1 221124Z 16011KT 12/10 A2974 RMK A01 T01220098  RH  085%=      5-min Rain = 0
KMC1 221125Z 16010KT 12/10 A2974 RMK A01 T01210097  RH  085%=      5-min Rain = 0
KMC1 221126Z 17010KT 12/10 A2974 RMK A01 T01220098  RH  085%=      5-min Rain = 0
KMC1 221127Z 17009KT 12/10 A2974 RMK A01 T01210098  RH  085%=      5-min Rain = 0
KMC1 221128Z 15012KT 12/10 A2974 RMK A01 T01220098  RH  085%=      5-min Rain = 0
KMC1 221129Z 17011G17KT 12/10 A2974 RMK A01 T01210098  RH  085%=      5-min Rain = 0
KMC1 221130Z 18010KT 12/10 A2974 RMK A01 T01220098  RH  085%=      5-min Rain = 0
KMC1 221131Z 17009G14KT 12/10 A2975 RMK A01 T01210098  RH  085%=      5-min Rain = 0
KMC1 221132Z 17012KT 12/10 A2975 RMK A01 T01210098  RH  085%=      5-min Rain = 0
KMC1 221133Z 17010KT 12/10 A2975 RMK A01 T01220098  RH  085%=      5-min Rain = 0
KMC1 221134Z 18009KT 12/10 A2975 RMK A01 T01210098  RH  085%=      5-min Rain = 0
KMC1 221135Z 17012KT 12/10 A2975 RMK A01 T01210098  RH  086%=      5-min Rain = 0
KMC1 221136Z 17011KT 12/10 A2975 RMK A01 T01210098  RH  086%=      5-min Rain = 0
KMC1 221137Z 16011KT 12/10 A2975 RMK A01 T01210098  RH  085%=      5-min Rain = 0
KMC1 221138Z 17013KT 12/10 A2975 RMK A01 T01220098  RH  086%=      5-min Rain = 0
KMC1 221139Z 17010KT 12/10 A2975 RMK A01 T01210098  RH  085%=      5-min Rain = 0
KMC1 221140Z 16011KT 12/10 A2975 RMK A01 T01220098  RH  085%=      5-min Rain = 0
KMC1 221141Z 17011KT 12/10 A2975 RMK A01 T01210098  RH  085%=      5-min Rain = 0
KMC1 221142Z 15011KT 12/10 A2974 RMK A01 T01210098  RH  085%=      5-min Rain = 0
KMC1 221143Z 18013G19KT 12/10 A2975 RMK A01 T01210097  RH  085%=      5-min Rain = 0
KMC1 221144Z 18013G19KT 12/10 A2975 RMK A01 T01210098  RH  085%=      5-min Rain = 0
KMC1 221145Z 17011G16KT 12/10 A2975 RMK A01 T01210098  RH  085%=      5-min Rain = 0
KMC1 221146Z 16014G19KT 12/10 A2975 RMK A01 T01220098  RH  085%=      5-min Rain = 0
KMC1 221147Z 16013G18KT 12/10 A2975 RMK A01 T01220098  RH  085%=      5-min Rain = 0
KMC1 221148Z 16011KT 12/10 A2975 RMK A01 T01220098  RH  085%=      5-min Rain = 0
KMC1 221149Z 17010G16KT 12/10 A2975 RMK A01 T01220098  RH  085%=      5-min Rain = 0
KMC1 221150Z 16011KT 12/10 A2975 RMK A01 T01220098  RH  085%=      5-min Rain = 0
KMC1 221151Z 17016KT 12/10 A2975 RMK A01 T01210098  RH  085%=      5-min Rain = 0
KMC1 221152Z 17010G15KT 12/10 A2975 RMK A01 T01220098  RH  085%=      5-min Rain = 0
KMC1 221153Z 17014KT 12/10 A2975 RMK A01 T01210098  RH  085%=      5-min Rain = 0
KMC1 221154Z 18014KT 12/10 A2975 RMK A01 T01220098  RH  085%=      5-min Rain = 0
KMC1 221155Z 17014G21KT 12/10 A2975 RMK A01 T01220098  RH  085%=      5-min Rain = 0
KMC1 221156Z 16015G20KT 12/10 A2975 RMK A01 T01230098  RH  085%=      5-min Rain = 0
KMC1 221157Z 17014G19KT 12/10 A2975 RMK A01 T01220098  RH  085%=      5-min Rain = 0
KMC1 221158Z 16012G17KT 12/10 A2975 RMK A01 T01220098  RH  085%=      5-min Rain = 0
KMC1 221159Z 16013KT 12/10 A2975 RMK A01 T01220098  RH  085%=      5-min Rain = 0
KMC1 221200Z 17012KT 12/10 A2975 RMK A01 T01220098  RH  085%=      5-min Rain = 0
KMC1 221201Z 16012KT 12/10 A2974 RMK A01 T01220098  RH  085%=      5-min Rain = 0
KMC1 221202Z 16009KT 12/10 A2974 RMK A01 T01220098  RH  085%=      5-min Rain = 0
KMC1 221203Z 17011KT 12/10 A2975 RMK A01 T01220098  RH  085%=      5-min Rain = 0
KMC1 221204Z 17012KT 12/10 A2975 RMK A01 T01220098  RH  085%=      5-min Rain = 0
KMC1 221205Z 16011G16KT 12/10 A2975 RMK A01 T01220098  RH  085%=      5-min Rain = 0
KMC1 221206Z 16011G17KT 12/10 A2975 RMK A01 T01220098  RH  085%=      5-min Rain = 0
KMC1 221207Z 17010G15KT 12/10 A2975 RMK A01 T01220098  RH  085%=      5-min Rain = 0
KMC1 221208Z 16010G17KT 12/10 A2975 RMK A01 T01220098  RH  085%=      5-min Rain = 0
KMC1 221209Z 16011G16KT 12/10 A2975 RMK A01 T01220098  RH  085%=      5-min Rain = 0
KMC1 221210Z 16010KT 12/10 A2975 RMK A01 T01220098  RH  085%=      5-min Rain = 0
KMC1 221211Z 16010KT 12/10 A2975 RMK A01 T01220098  RH  085%=      5-min Rain = 0
KMC1 221212Z 17012KT 12/10 A2975 RMK A01 T01210098  RH  086%=      5-min Rain = 0
KMC1 221213Z 17011KT 12/10 A2975 RMK A01 T01210098  RH  086%=      5-min Rain = 0
KMC1 221214Z 17011KT 12/10 A2975 RMK A01 T01210098  RH  086%=      5-min Rain = 0
KMC1 221215Z 16011KT 12/10 A2975 RMK A01 T01220098  RH  085%=      5-min Rain = 0
KMC1 221216Z 17009KT 12/10 A2975 RMK A01 T01210098  RH  085%=      5-min Rain = 0
KMC1 221217Z 17009KT 12/10 A2975 RMK A01 T01220098  RH  085%=      5-min Rain = 0
KMC1 221218Z 17008KT 12/10 A2975 RMK A01 T01220098  RH  086%=      5-min Rain = 0
KMC1 221219Z 16008G14KT 12/10 A2975 RMK A01 T01210098  RH  086%=      5-min Rain = 0
KMC1 221220Z 17010KT 12/10 A2975 RMK A01 T01210098  RH  086%=      5-min Rain = 0
KMC1 221221Z 16010KT 12/10 A2975 RMK A01 T01220098  RH  086%=      5-min Rain = 0
KMC1 221222Z 16009KT 12/10 A2975 RMK A01 T01220098  RH  086%=      5-min Rain = 0
KMC1 221223Z 17010G16KT 12/10 A2975 RMK A01 T01210098  RH  086%=      5-min Rain = 0
KMC1 221224Z 17013KT 12/10 A2975 RMK A01 T01210098  RH  086%=      5-min Rain = 0
KMC1 221225Z 17013G21KT 12/10 A2975 RMK A01 T01220099  RH  086%=      5-min Rain = 0
KMC1 221226Z 17013KT 12/10 A2976 RMK A01 T01220098  RH  086%=      5-min Rain = 0
KMC1 221227Z 16009KT 12/10 A2976 RMK A01 T01220098  RH  085%=      5-min Rain = 0
KMC1 221228Z 17012KT 12/10 A2976 RMK A01 T01230098  RH  085%=      5-min Rain = 0
KMC1 221229Z 17008KT 12/10 A2976 RMK A01 T01220098  RH  085%=      5-min Rain = 0
KMC1 221230Z 17007KT 12/10 A2976 RMK A01 T01220098  RH  085%=      5-min Rain = 0
KMC1 221231Z 16008KT 12/10 A2976 RMK A01 T01220098  RH  085%=      5-min Rain = 0
KMC1 221232Z 17012G17KT 12/10 A2976 RMK A01 T01210098  RH  086%=      5-min Rain = 0
KMC1 221233Z 18007KT 12/10 A2976 RMK A01 T01210098  RH  086%=      5-min Rain = 0
KMC1 221234Z 17009G14KT 12/10 A2976 RMK A01 T01220098  RH  086%=      5-min Rain = 0
KMC1 221235Z 19008KT 12/10 A2976 RMK A01 T01210098  RH  086%=      5-min Rain = 0
KMC1 221236Z 17009KT 12/10 A2976 RMK A01 T01220099  RH  086%=      5-min Rain = 0
KMC1 221237Z 17009KT 12/10 A2976 RMK A01 T01220098  RH  086%=      5-min Rain = 0
KMC1 221238Z 16008KT 12/10 A2976 RMK A01 T01220099  RH  086%=      5-min Rain = 0
KMC1 221239Z 17008KT 12/10 A2976 RMK A01 T01220099  RH  086%=      5-min Rain = 0
KMC1 221240Z 16008KT 12/10 A2976 RMK A01 T01220099  RH  086%=      5-min Rain = 0
KMC1 221241Z 16005KT 12/10 A2976 RMK A01 T01210098  RH  086%=      5-min Rain = 0
KMC1 221242Z 16006KT 12/10 A2976 RMK A01 T01210098  RH  086%=      5-min Rain = 0
KMC1 221243Z 16008KT 12/10 A2976 RMK A01 T01210099  RH  086%=      5-min Rain = 0
KMC1 221244Z 17009KT 12/10 A2976 RMK A01 T01210098  RH  086%=      5-min Rain = 0
KMC1 221245Z 16008KT 12/10 A2976 RMK A01 T01210098  RH  086%=      5-min Rain = 0
KMC1 221246Z 16008KT 12/10 A2976 RMK A01 T01210098  RH  086%=      5-min Rain = 0
KMC1 221247Z 16007G12KT 12/10 A2976 RMK A01 T01210098  RH  086%=      5-min Rain = 0
KMC1 221248Z 16010KT 12/10 A2976 RMK A01 T01210098  RH  086%=      5-min Rain = 0
KMC1 221249Z 16008KT 12/10 A2976 RMK A01 T01220099  RH  086%=      5-min Rain = 0
KMC1 221250Z 16010G15KT 12/10 A2975 RMK A01 T01210098  RH  086%=      5-min Rain = 0
KMC1 221251Z 16008G13KT 12/10 A2975 RMK A01 T01210098  RH  086%=      5-min Rain = 0
KMC1 221252Z 15006KT 12/10 A2975 RMK A01 T01210098  RH  086%=      5-min Rain = 0
KMC1 221253Z 16011KT 12/10 A2975 RMK A01 T01210098  RH  086%=      5-min Rain = 0
KMC1 221254Z 15009KT 12/10 A2975 RMK A01 T01210098  RH  086%=      5-min Rain = 0
KMC1 221255Z 16009G15KT 12/10 A2975 RMK A01 T01220099  RH  086%=      5-min Rain = 0
KMC1 221256Z 17010KT 12/10 A2976 RMK A01 T01210098  RH  086%=      5-min Rain = 0
KMC1 221257Z 17010KT 12/10 A2976 RMK A01 T01220099  RH  086%=      5-min Rain = 0
KMC1 221258Z 16009G15KT 12/10 A2976 RMK A01 T01210098  RH  086%=      5-min Rain = 0
KMC1 221259Z 17011KT 12/10 A2976 RMK A01 T01210098  RH  086%=      5-min Rain = 0
KMC1 221300Z 16009KT 12/10 A2976 RMK A01 T01220098  RH  086%=      5-min Rain = 0
KMC1 221301Z 17007KT 12/10 A2976 RMK A01 T01210098  RH  086%=      5-min Rain = 0
KMC1 221302Z 17010KT 12/10 A2976 RMK A01 T01220098  RH  086%=      5-min Rain = 0
KMC1 221303Z 16007KT 12/10 A2976 RMK A01 T01210098  RH  086%=      5-min Rain = 0
KMC1 221304Z 16005KT 12/10 A2976 RMK A01 T01210098  RH  086%=      5-min Rain = 0
KMC1 221305Z 18004KT 12/10 A2977 RMK A01 T01210098  RH  086%=      5-min Rain = 0
KMC1 221306Z 18005KT 12/10 A2977 RMK A01 T01210098  RH  086%=      5-min Rain = 0
KMC1 221307Z 18005KT 12/10 A2977 RMK A01 T01210098  RH  086%=      5-min Rain = 0
KMC1 221308Z 16008KT 12/10 A2977 RMK A01 T01200098  RH  086%=      5-min Rain = 0
KMC1 221309Z 17007KT 12/10 A2977 RMK A01 T01200098  RH  086%=      5-min Rain = 0
KMC1 221310Z 17005KT 12/10 A2977 RMK A01 T01210099  RH  086%=      5-min Rain = 0
KMC1 221311Z 17006KT 12/10 A2977 RMK A01 T01210098  RH  086%=      5-min Rain = 0
KMC1 221312Z 17007KT 12/10 A2977 RMK A01 T01210098  RH  086%=      5-min Rain = 0
KMC1 221313Z 16007KT 12/10 A2977 RMK A01 T01210098  RH  086%=      5-min Rain = 0
KMC1 221314Z 17007KT 12/10 A2977 RMK A01 T01210099  RH  086%=      5-min Rain = 0
KMC1 221315Z 17006KT 12/10 A2977 RMK A01 T01210099  RH  086%=      5-min Rain = 0
KMC1 221316Z 17008KT 12/10 A2977 RMK A01 T01220099  RH  086%=      5-min Rain = 0
KMC1 221317Z 17007KT 12/10 A2977 RMK A01 T01220099  RH  086%=      5-min Rain = 0
KMC1 221318Z 17007KT 12/10 A2976 RMK A01 T01210099  RH  086%=      5-min Rain = 0
KMC1 221319Z 16007KT 12/10 A2976 RMK A01 T01210099  RH  086%=      5-min Rain = 0
KMC1 221320Z 18006KT 12/10 A2976 RMK A01 T01210099  RH  086%=      5-min Rain = 0
KMC1 221321Z 16006KT 12/10 A2976 RMK A01 T01210099  RH  086%=      5-min Rain = 0
KMC1 221322Z 17006KT 12/10 A2976 RMK A01 T01210099  RH  086%=      5-min Rain = 0
KMC1 221323Z 16006KT 12/10 A2976 RMK A01 T01200098  RH  086%=      5-min Rain = 0
KMC1 221324Z 17006KT 12/10 A2976 RMK A01 T01200099  RH  087%=      5-min Rain = 0
KMC1 221325Z 16009G15KT 12/10 A2976 RMK A01 T01200099  RH  087%=      5-min Rain = 0
KMC1 221326Z 16008KT 12/10 A2976 RMK A01 T01200099  RH  087%=      5-min Rain = 0
KMC1 221327Z 17008KT 12/10 A2977 RMK A01 T01200099  RH  087%=      5-min Rain = 0
KMC1 221328Z 16006G11KT 12/10 A2977 RMK A01 T01210099  RH  087%=      5-min Rain = 0
KMC1 221329Z 17008KT 12/10 A2977 RMK A01 T01210099  RH  086%=      5-min Rain = 0
KMC1 221330Z 18009KT 12/10 A2977 RMK A01 T01200098  RH  086%=      5-min Rain = 0
KMC1 221331Z 17009KT 12/10 A2977 RMK A01 T01210099  RH  086%=      5-min Rain = 0
KMC1 221332Z 16008KT 12/10 A2977 RMK A01 T01210099  RH  086%=      5-min Rain = 0
KMC1 221333Z 17006KT 12/10 A2976 RMK A01 T01210099  RH  086%=      5-min Rain = 0
KMC1 221334Z 16009KT 12/10 A2976 RMK A01 T01210099  RH  086%=      5-min Rain = 0
KMC1 221335Z 17006KT 12/10 A2977 RMK A01 T01210099  RH  087%=      5-min Rain = 0
KMC1 221336Z 16006KT 12/10 A2977 RMK A01 T01210099  RH  087%=      5-min Rain = 0
KMC1 221337Z 17007G12KT 12/10 A2977 RMK A01 T01200099  RH  087%=      5-min Rain = 0
KMC1 221338Z 17005KT 12/10 A2977 RMK A01 T01210099  RH  087%=      5-min Rain = 0
KMC1 221339Z 16005G10KT 12/10 A2977 RMK A01 T01210099  RH  087%=      5-min Rain = 0
KMC1 221340Z 17007KT 12/10 A2977 RMK A01 T01210099  RH  086%=      5-min Rain = 0
KMC1 221341Z 17009KT 12/10 A2977 RMK A01 T01210099  RH  087%=      5-min Rain = 0
KMC1 221342Z 17009G14KT 12/10 A2977 RMK A01 T01210099  RH  086%=      5-min Rain = 0
KMC1 221343Z 17007KT 12/10 A2977 RMK A01 T01210099  RH  086%=      5-min Rain = 0
KMC1 221344Z 18006KT 12/10 A2978 RMK A01 T01210099  RH  086%=      5-min Rain = 0
KMC1 221345Z 17006KT 12/10 A2978 RMK A01 T01210099  RH  086%=      5-min Rain = 0
KMC1 221346Z 17006KT 12/10 A2977 RMK A01 T01210099  RH  086%=      5-min Rain = 0
KMC1 221347Z 19007KT 12/10 A2977 RMK A01 T01210099  RH  086%=      5-min Rain = 0
KMC1 221348Z 18008KT 12/10 A2978 RMK A01 T01220099  RH  086%=      5-min Rain = 0
KMC1 221349Z 17005KT 12/10 A2978 RMK A01 T01220099  RH  086%=      5-min Rain = 0
KMC1 221350Z 19008G13KT 12/10 A2978 RMK A01 T01220099  RH  086%=      5-min Rain = 0
KMC1 221351Z 17009KT 12/10 A2978 RMK A01 T01220099  RH  086%=      5-min Rain = 0
KMC1 221352Z 17009KT 12/10 A2978 RMK A01 T01220099  RH  086%=      5-min Rain = 0
KMC1 221353Z 18009KT 12/10 A2978 RMK A01 T01220099  RH  086%=      5-min Rain = 0
KMC1 221354Z 17009KT 12/10 A2978 RMK A01 T01230099  RH  086%=      5-min Rain = 0
KMC1 221355Z 18007KT 12/10 A2978 RMK A01 T01230099  RH  086%=      5-min Rain = 0
KMC1 221356Z 18008KT 12/10 A2978 RMK A01 T01230099  RH  086%=      5-min Rain = 0
KMC1 221357Z 18009KT 12/10 A2978 RMK A01 T01230100  RH  086%=      5-min Rain = 0
KMC1 221358Z 18007KT 12/10 A2978 RMK A01 T01230100  RH  086%=      5-min Rain = 0
KMC1 221359Z 17007KT 12/10 A2978 RMK A01 T01230100  RH  086%=      5-min Rain = 0
KMC1 221400Z 17006KT 12/10 A2978 RMK A01 T01230100  RH  086%=      5-min Rain = 0
KMC1 221401Z 17009KT 12/10 A2978 RMK A01 T01220100  RH  086%=      5-min Rain = 0
KMC1 221402Z 18010KT 12/10 A2978 RMK A01 T01220100  RH  086%=      5-min Rain = 0
KMC1 221403Z 17010KT 12/10 A2978 RMK A01 T01220100  RH  086%=      5-min Rain = 0
KMC1 221404Z 17011KT 12/10 A2978 RMK A01 T01220099  RH  086%=      5-min Rain = 0
KMC1 221405Z 17009KT 12/10 A2978 RMK A01 T01230100  RH  086%=      5-min Rain = 0
KMC1 221406Z 18009KT 12/10 A2978 RMK A01 T01230100  RH  086%=      5-min Rain = 0
KMC1 221407Z 18012KT 12/10 A2978 RMK A01 T01230100  RH  086%=      5-min Rain = 0
KMC1 221408Z 18009KT 12/10 A2978 RMK A01 T01230100  RH  086%=      5-min Rain = 0
KMC1 221409Z 17008G13KT 12/10 A2978 RMK A01 T01230100  RH  086%=      5-min Rain = 0
KMC1 221410Z 17009KT 12/10 A2978 RMK A01 T01230100  RH  086%=      5-min Rain = 0
KMC1 221411Z 18009G14KT 12/10 A2978 RMK A01 T01230100  RH  086%=      5-min Rain = 0
KMC1 221412Z 18010KT 12/10 A2978 RMK A01 T01230100  RH  085%=      5-min Rain = 0
KMC1 221413Z 18006KT 12/10 A2978 RMK A01 T01230099  RH  085%=      5-min Rain = 0
KMC1 221414Z 18008KT 12/10 A2978 RMK A01 T01230100  RH  085%=      5-min Rain = 0
KMC1 221415Z 17007KT 12/10 A2978 RMK A01 T01230100  RH  085%=      5-min Rain = 0
KMC1 221416Z 18008KT 12/10 A2978 RMK A01 T01230099  RH  085%=      5-min Rain = 0
KMC1 221417Z 17007KT 12/10 A2978 RMK A01 T01240100  RH  085%=      5-min Rain = 0
KMC1 221418Z 18007KT 12/10 A2978 RMK A01 T01230100  RH  085%=      5-min Rain = 0
KMC1 221419Z 18006KT 12/10 A2978 RMK A01 T01230100  RH  085%=      5-min Rain = 0
KMC1 221420Z 16007KT 12/10 A2978 RMK A01 T01230100  RH  085%=      5-min Rain = 0
KMC1 221421Z 18008KT 12/10 A2978 RMK A01 T01230100  RH  086%=      5-min Rain = 0
KMC1 221422Z 18008KT 12/10 A2978 RMK A01 T01230100  RH  086%=      5-min Rain = 0
KMC1 221423Z 19009KT 12/10 A2978 RMK A01 T01230100  RH  085%=      5-min Rain = 0
KMC1 221424Z 17007G12KT 12/10 A2978 RMK A01 T01240100  RH  085%=      5-min Rain = 0
KMC1 221425Z 18009KT 12/10 A2978 RMK A01 T01240100  RH  085%=      5-min Rain = 0
KMC1 221426Z 18010KT 12/10 A2978 RMK A01 T01240100  RH  085%=      5-min Rain = 0
KMC1 221427Z 17008KT 12/10 A2978 RMK A01 T01240100  RH  085%=      5-min Rain = 0
KMC1 221428Z 17007KT 12/10 A2978 RMK A01 T01240100  RH  085%=      5-min Rain = 0
KMC1 221429Z 17010KT 12/10 A2978 RMK A01 T01240100  RH  085%=      5-min Rain = 0
KMC1 221430Z 18009KT 12/10 A2978 RMK A01 T01240100  RH  085%=      5-min Rain = 0
KMC1 221431Z 17008KT 12/10 A2978 RMK A01 T01240100  RH  085%=      5-min Rain = 0
KMC1 221432Z 17006KT 12/10 A2978 RMK A01 T01240100  RH  085%=      5-min Rain = 0
KMC1 221433Z 17008KT 12/10 A2978 RMK A01 T01240100  RH  085%=      5-min Rain = 0
KMC1 221434Z 17010KT 12/10 A2978 RMK A01 T01240100  RH  085%=      5-min Rain = 0
KMC1 221435Z 17009KT 12/10 A2978 RMK A01 T01240100  RH  085%=      5-min Rain = 0
KMC1 221436Z 17009KT 13/10 A2978 RMK A01 T01250100  RH  085%=      5-min Rain = 0
KMC1 221437Z 17005KT 13/10 A2978 RMK A01 T01250100  RH  085%=      5-min Rain = 0
KMC1 221438Z 17008G14KT 13/10 A2978 RMK A01 T01250100  RH  085%=      5-min Rain = 0
KMC1 221439Z 16010KT 13/10 A2978 RMK A01 T01250100  RH  085%=      5-min Rain = 0
KMC1 221440Z 17008KT 13/10 A2978 RMK A01 T01250101  RH  085%=      5-min Rain = 0
KMC1 221441Z 18009KT 13/10 A2978 RMK A01 T01250100  RH  085%=      5-min Rain = 0
KMC1 221442Z 17008KT 13/10 A2978 RMK A01 T01250100  RH  085%=      5-min Rain = 0
KMC1 221443Z 17007KT 13/10 A2978 RMK A01 T01250100  RH  085%=      5-min Rain = 0
KMC1 221444Z 17009KT 13/10 A2978 RMK A01 T01250100  RH  085%=      5-min Rain = 0
KMC1 221445Z 18008KT 13/10 A2978 RMK A01 T01250100  RH  085%=      5-min Rain = 0
KMC1 221446Z 18010KT 13/10 A2978 RMK A01 T01260100  RH  085%=      5-min Rain = 0
KMC1 221447Z 17012KT 13/10 A2978 RMK A01 T01260100  RH  084%=      5-min Rain = 0
KMC1 221448Z 17010KT 13/10 A2978 RMK A01 T01260100  RH  084%=      5-min Rain = 0
KMC1 221449Z 17009G14KT 13/10 A2978 RMK A01 T01260100  RH  084%=      5-min Rain = 0
KMC1 221450Z 18008KT 13/10 A2978 RMK A01 T01260100  RH  084%=      5-min Rain = 0
KMC1 221451Z 17010KT 13/10 A2978 RMK A01 T01260100  RH  084%=      5-min Rain = 0
KMC1 221452Z 17009KT 13/10 A2978 RMK A01 T01260100  RH  084%=      5-min Rain = 0
KMC1 221453Z 17007KT 13/10 A2978 RMK A01 T01260100  RH  084%=      5-min Rain = 0
KMC1 221454Z 18010KT 13/10 A2978 RMK A01 T01270100  RH  084%=      5-min Rain = 0
KMC1 221455Z 18011KT 13/10 A2978 RMK A01 T01260100  RH  084%=      5-min Rain = 0
KMC1 221456Z 18011KT 13/10 A2978 RMK A01 T01270100  RH  084%=      5-min Rain = 0
KMC1 221457Z 17008KT 13/10 A2978 RMK A01 T01270100  RH  084%=      5-min Rain = 0
KMC1 221458Z 18010G15KT 13/10 A2978 RMK A01 T01270100  RH  084%=      5-min Rain = 0
KMC1 221459Z 18008KT 13/10 A2978 RMK A01 T01270100  RH  084%=      5-min Rain = 0
KMC1 221500Z 19006KT 13/10 A2978 RMK A01 T01270100  RH  084%=      5-min Rain = 0
KMC1 221501Z 18005KT 13/10 A2978 RMK A01 T01270101  RH  084%=      5-min Rain = 0
KMC1 221502Z 18008KT 13/10 A2979 RMK A01 T01270101  RH  084%=      5-min Rain = 0
KMC1 221503Z 17006KT 13/10 A2979 RMK A01 T01270100  RH  084%=      5-min Rain = 0
KMC1 221504Z 18007KT 13/10 A2979 RMK A01 T01280101  RH  084%=      5-min Rain = 0
KMC1 221505Z 18007KT 13/10 A2979 RMK A01 T01280101  RH  084%=      5-min Rain = 0
KMC1 221506Z 19008KT 13/10 A2979 RMK A01 T01280101  RH  084%=      5-min Rain = 0
KMC1 221507Z 17011KT 13/10 A2979 RMK A01 T01280101  RH  083%=      5-min Rain = 0
KMC1 221508Z 17011KT 13/10 A2978 RMK A01 T01280100  RH  083%=      5-min Rain = 0
KMC1 221509Z 18009G15KT 13/10 A2978 RMK A01 T01280100  RH  083%=      5-min Rain = 0
KMC1 221510Z 18008KT 13/10 A2978 RMK A01 T01280100  RH  083%=      5-min Rain = 0
KMC1 221511Z 17009KT 13/10 A2978 RMK A01 T01280101  RH  083%=      5-min Rain = 0
KMC1 221512Z 17010KT 13/10 A2978 RMK A01 T01280101  RH  083%=      5-min Rain = 0
KMC1 221513Z 17014KT 13/10 A2978 RMK A01 T01290101  RH  083%=      5-min Rain = 0
KMC1 221514Z 18010KT 13/10 A2978 RMK A01 T01290100  RH  083%=      5-min Rain = 0
KMC1 221515Z 18009KT 13/10 A2978 RMK A01 T01290100  RH  083%=      5-min Rain = 0
KMC1 221516Z 16008KT 13/10 A2978 RMK A01 T01290101  RH  083%=      5-min Rain = 0
KMC1 221517Z 16006KT 13/10 A2978 RMK A01 T01290101  RH  083%=      5-min Rain = 0
KMC1 221518Z 17005KT 13/10 A2978 RMK A01 T01300102  RH  083%=      5-min Rain = 0
KMC1 221519Z 17009KT 13/10 A2978 RMK A01 T01300102  RH  083%=      5-min Rain = 0
KMC1 221520Z 19007G12KT 13/10 A2978 RMK A01 T01300101  RH  083%=      5-min Rain = 0
KMC1 221521Z 18005KT 13/10 A2978 RMK A01 T01300101  RH  082%=      5-min Rain = 0
KMC1 221522Z 17007KT 13/10 A2978 RMK A01 T01310102  RH  083%=      5-min Rain = 0
KMC1 221523Z 17012G20KT 13/10 A2978 RMK A01 T01310102  RH  082%=      5-min Rain = 0
KMC1 221524Z 17015G20KT 13/10 A2978 RMK A01 T01310101  RH  082%=      5-min Rain = 0
KMC1 221525Z 18012KT 13/10 A2978 RMK A01 T01310101  RH  082%=      5-min Rain = 0
KMC1 221526Z 17012KT 13/10 A2978 RMK A01 T01310101  RH  082%=      5-min Rain = 0
KMC1 221527Z 18012KT 13/10 A2978 RMK A01 T01310101  RH  082%=      5-min Rain = 0
KMC1 221528Z 18011KT 13/10 A2978 RMK A01 T01310100  RH  082%=      5-min Rain = 0
KMC1 221529Z 17011G16KT 13/10 A2978 RMK A01 T01310101  RH  082%=      5-min Rain = 0
KMC1 221530Z 17015KT 13/10 A2978 RMK A01 T01310101  RH  081%=      5-min Rain = 0
KMC1 221531Z 18015G21KT 13/10 A2978 RMK A01 T01320101  RH  082%=      5-min Rain = 0
KMC1 221532Z 18011G19KT 13/10 A2978 RMK A01 T01320101  RH  081%=      5-min Rain = 0
KMC1 221533Z 18014G19KT 13/10 A2978 RMK A01 T01330101  RH  081%=      5-min Rain = 0
KMC1 221534Z 18010KT 13/10 A2978 RMK A01 T01330102  RH  081%=      5-min Rain = 0
KMC1 221535Z 18013G19KT 13/10 A2978 RMK A01 T01330102  RH  081%=      5-min Rain = 0
KMC1 221536Z 18013KT 13/10 A2978 RMK A01 T01340101  RH  081%=      5-min Rain = 0
KMC1 221537Z 17011KT 13/10 A2978 RMK A01 T01340101  RH  081%=      5-min Rain = 0
KMC1 221538Z 18010G15KT 13/10 A2978 RMK A01 T01340102  RH  081%=      5-min Rain = 0
KMC1 221539Z 19008KT 13/10 A2978 RMK A01 T01340102  RH  081%=      5-min Rain = 0
KMC1 221540Z 18007KT 14/10 A2979 RMK A01 T01350103  RH  081%=      5-min Rain = 0
KMC1 221541Z 18012KT 14/10 A2979 RMK A01 T01360103  RH  080%=      5-min Rain = 0
KMC1 221542Z 18011G16KT 14/10 A2979 RMK A01 T01360102  RH  080%=      5-min Rain = 0
KMC1 221543Z 17006KT 14/10 A2979 RMK A01 T01360102  RH  080%=      5-min Rain = 0
KMC1 221544Z 18009KT 14/10 A2979 RMK A01 T01360103  RH  080%=      5-min Rain = 0
KMC1 221545Z 19009KT 14/10 A2979 RMK A01 T01380104  RH  080%=      5-min Rain = 0
KMC1 221546Z 18008KT 14/10 A2979 RMK A01 T01390103  RH  079%=      5-min Rain = 0
KMC1 221547Z 18010KT 14/10 A2979 RMK A01 T01390103  RH  079%=      5-min Rain = 0
KMC1 221548Z 19010KT 14/10 A2979 RMK A01 T01380102  RH  079%=      5-min Rain = 0
KMC1 221549Z 19012G17KT 14/10 A2979 RMK A01 T01380103  RH  079%=      5-min Rain = 0
KMC1 221550Z 18014KT 14/10 A2979 RMK A01 T01380103  RH  079%=      5-min Rain = 0
KMC1 221551Z 17009KT 14/10 A2979 RMK A01 T01380103  RH  080%=      5-min Rain = 0
KMC1 221552Z 17012G18KT 14/10 A2979 RMK A01 T01370103  RH  080%=      5-min Rain = 0
KMC1 221553Z 18013KT 14/10 A2979 RMK A01 T01370102  RH  079%=      5-min Rain = 0
KMC1 221554Z 18009KT 14/10 A298 RMK A01 T01370102  RH  079%=      5-min Rain = 0
KMC1 221555Z 18006KT 14/10 A298 RMK A01 T01360103  RH  080%=      5-min Rain = 0
KMC1 221556Z 17009G15KT 14/10 A2979 RMK A01 T01370103  RH  080%=      5-min Rain = 0
KMC1 221557Z 17015KT 14/10 A2979 RMK A01 T01370102  RH  079%=      5-min Rain = 0
KMC1 221558Z 19013KT 14/10 A2979 RMK A01 T01370101  RH  079%=      5-min Rain = 0
KMC1 221559Z 19012KT 14/10 A298 RMK A01 T01360102  RH  080%=      5-min Rain = 0
KMC1 221600Z 19012G20KT 14/10 A298 RMK A01 T01360102  RH  079%=      5-min Rain = 0
KMC1 221601Z 19010KT 14/10 A298 RMK A01 T01360102  RH  080%=      5-min Rain = 0
KMC1 221602Z 18013KT 14/10 A298 RMK A01 T01360102  RH  080%=      5-min Rain = 0
KMC1 221603Z 18014KT 14/10 A2979 RMK A01 T01370102  RH  080%=      5-min Rain = 0
KMC1 221604Z 18013G18KT 14/10 A298 RMK A01 T01370102  RH  079%=      5-min Rain = 0
KMC1 221605Z 19009KT 14/10 A298 RMK A01 T01370102  RH  079%=      5-min Rain = 0
KMC1 221606Z 19010G18KT 14/10 A298 RMK A01 T01370103  RH  079%=      5-min Rain = 0
KMC1 221607Z 19011KT 14/10 A298 RMK A01 T01380103  RH  079%=      5-min Rain = 0
KMC1 221608Z 18011KT 14/10 A2979 RMK A01 T01380102  RH  079%=      5-min Rain = 0
KMC1 221609Z 18013G18KT 14/10 A2979 RMK A01 T01380102  RH  079%=      5-min Rain = 0
KMC1 221610Z 19012G17KT 14/10 A2979 RMK A01 T01380101  RH  079%=      5-min Rain = 0
KMC1 221611Z 19011G19KT 14/10 A2979 RMK A01 T01370102  RH  079%=      5-min Rain = 0
KMC1 221612Z 19014G19KT 14/10 A298 RMK A01 T01370101  RH  079%=      5-min Rain = 0
KMC1 221613Z 18013KT 14/10 A298 RMK A01 T01360101  RH  079%=      5-min Rain = 0
KMC1 221614Z 18011G16KT 14/10 A298 RMK A01 T01360101  RH  079%=      5-min Rain = 0
KMC1 221615Z 18010KT 14/10 A298 RMK A01 T01360101  RH  079%=      5-min Rain = 0
KMC1 221616Z 19013G18KT 14/10 A2979 RMK A01 T01360101  RH  079%=      5-min Rain = 0
KMC1 221617Z 18010G15KT 14/10 A2979 RMK A01 T01360101  RH  079%=      5-min Rain = 0
KMC1 221618Z 18010G16KT 14/10 A298 RMK A01 T01360101  RH  080%=      5-min Rain = 0
KMC1 221619Z 18010G15KT 14/10 A298 RMK A01 T01360102  RH  079%=      5-min Rain = 0
KMC1 221620Z 18011KT 14/10 A298 RMK A01 T01370102  RH  079%=      5-min Rain = 0
KMC1 221621Z 19012KT 14/10 A298 RMK A01 T01370102  RH  079%=      5-min Rain = 0
KMC1 221622Z 18010KT 14/10 A298 RMK A01 T01370102  RH  079%=      5-min Rain = 0
KMC1 221623Z 18011KT 14/10 A298 RMK A01 T01370101  RH  079%=      5-min Rain = 0
KMC1 221624Z 20013G18KT 14/10 A298 RMK A01 T01380102  RH  079%=      5-min Rain = 0
KMC1 221625Z 20011KT 14/10 A2981 RMK A01 T01380101  RH  079%=      5-min Rain = 0
KMC1 221626Z 22010KT 14/10 A2982 RMK A01 T01380101  RH  079%=      5-min Rain = 0
KMC1 221627Z 24010KT 14/10 A2983 RMK A01 T01370101  RH  079%=      5-min Rain = 0
KMC1 221628Z 24012KT 14/10 A2983 RMK A01 T01370102  RH  079%=      5-min Rain = 0
KMC1 221629Z 24008G13KT 14/10 A2984 RMK A01 T01370102  RH  079%=      5-min Rain = 0
KMC1 221630Z 22009G14KT 14/10 A2983 RMK A01 T01370102  RH  079%=      5-min Rain = 0
KMC1 221631Z 21009KT 14/10 A2982 RMK A01 T01370101  RH  079%=      5-min Rain = 0
KMC1 221632Z 21010KT 14/10 A2983 RMK A01 T01370102  RH  079%=      5-min Rain = 0
KMC1 221633Z 22009KT 14/10 A2983 RMK A01 T01360102  RH  080%=      5-min Rain = 0
KMC1 221634Z 24007KT 14/10 A2984 RMK A01 T01360102  RH  080%=      5-min Rain = 0
KMC1 221635Z 23006KT 14/10 A2984 RMK A01 T01360103  RH  080%=      5-min Rain = 0
KMC1 221636Z 22010KT 14/10 A2983 RMK A01 T01360102  RH  080%=      5-min Rain = 0
KMC1 221637Z 22008G16KT 14/10 A2983 RMK A01 T01360102  RH  080%=      5-min Rain = 0
KMC1 221638Z 24010KT 14/10 A2984 RMK A01 T01360102  RH  080%=      5-min Rain = 0
KMC1 221639Z 24010KT 14/10 A2984 RMK A01 T01360102  RH  080%=      5-min Rain = 0
KMC1 221640Z 24007KT 14/10 A2984 RMK A01 T01360102  RH  080%=      5-min Rain = 0
KMC1 221641Z 23009KT 14/10 A2984 RMK A01 T01360102  RH  080%=      5-min Rain = 0
KMC1 221642Z 22006KT 14/10 A2983 RMK A01 T01360103  RH  080%=      5-min Rain = 0
KMC1 221643Z 22006KT 14/10 A2983 RMK A01 T01370103  RH  080%=      5-min Rain = 0
KMC1 221644Z 23010KT 14/10 A2984 RMK A01 T01370103  RH  080%=      5-min Rain = 0
KMC1 221645Z 24006KT 14/10 A2984 RMK A01 T01370102  RH  079%=      5-min Rain = 0
KMC1 221646Z 22008KT 14/10 A2984 RMK A01 T01370103  RH  080%=      5-min Rain = 0
KMC1 221647Z 22007KT 14/10 A2984 RMK A01 T01370102  RH  079%=      5-min Rain = 0
KMC1 221648Z 22007KT 14/10 A2984 RMK A01 T01370102  RH  079%=      5-min Rain = 0
KMC1 221649Z 24008KT 14/10 A2985 RMK A01 T01370102  RH  080%=      5-min Rain = 0
KMC1 221650Z 24008KT 14/10 A2985 RMK A01 T01370102  RH  080%=      5-min Rain = 0
KMC1 221651Z 22010KT 14/10 A2985 RMK A01 T01370102  RH  079%=      5-min Rain = 0
KMC1 221652Z 23009KT 14/10 A2985 RMK A01 T01370102  RH  079%=      5-min Rain = 0
KMC1 221653Z 22009KT 14/10 A2985 RMK A01 T01360102  RH  080%=      5-min Rain = 0
KMC1 221654Z 22007KT 14/10 A2985 RMK A01 T01360102  RH  080%=      5-min Rain = 0
KMC1 221655Z 23007KT 14/10 A2985 RMK A01 T01360102  RH  080%=      5-min Rain = 0
KMC1 221656Z 23005KT 14/10 A2985 RMK A01 T01360103  RH  080%=      5-min Rain = 0
KMC1 221657Z 23006KT 14/10 A2985 RMK A01 T01360103  RH  080%=      5-min Rain = 0
KMC1 221658Z 22006KT 14/10 A2985 RMK A01 T01360103  RH  080%=      5-min Rain = 0
KMC1 221659Z 24007G13KT 14/10 A2985 RMK A01 T01360103  RH  080%=      5-min Rain = 0
KMC1 221700Z 25008KT 14/10 A2985 RMK A01 T01360103  RH  080%=      5-min Rain = 0
KMC1 221701Z 26007KT 14/10 A2985 RMK A01 T01360103  RH  080%=      5-min Rain = 0
KMC1 221702Z 25008G13KT 14/10 A2985 RMK A01 T01360103  RH  080%=      5-min Rain = 0
KMC1 221703Z 23008KT 14/10 A2984 RMK A01 T01370103  RH  080%=      5-min Rain = 0
KMC1 221704Z 22005KT 14/10 A2984 RMK A01 T01370103  RH  080%=      5-min Rain = 0
KMC1 221705Z 24009KT 14/10 A2985 RMK A01 T01360102  RH  080%=      5-min Rain = 0
KMC1 221706Z 25010KT 14/10 A2985 RMK A01 T01370102  RH  080%=      5-min Rain = 0
KMC1 221707Z 25008KT 14/10 A2985 RMK A01 T01370103  RH  080%=      5-min Rain = 0
KMC1 221708Z 24007KT 14/10 A2985 RMK A01 T01370103  RH  080%=      5-min Rain = 0
KMC1 221709Z 23005KT 14/10 A2985 RMK A01 T01370103  RH  080%=      5-min Rain = 0
KMC1 221710Z 22007KT 14/10 A2985 RMK A01 T01370103  RH  080%=      5-min Rain = 0
KMC1 221711Z 24008KT 14/10 A2985 RMK A01 T01370103  RH  080%=      5-min Rain = 0
KMC1 221712Z 23010KT 14/10 A2985 RMK A01 T01370103  RH  080%=      5-min Rain = 0
KMC1 221713Z 24008KT 14/10 A2985 RMK A01 T01380103  RH  079%=      5-min Rain = 0
KMC1 221714Z 24007KT 14/10 A2985 RMK A01 T01380103  RH  080%=      5-min Rain = 0
KMC1 221715Z 25006KT 14/10 A2985 RMK A01 T01380103  RH  080%=      5-min Rain = 0
KMC1 221716Z 24008KT 14/10 A2985 RMK A01 T01370103  RH  080%=      5-min Rain = 0
KMC1 221717Z 25008KT 14/10 A2985 RMK A01 T01370103  RH  080%=      5-min Rain = 0
KMC1 221718Z 25007KT 14/10 A2985 RMK A01 T01370103  RH  080%=      5-min Rain = 0
KMC1 221719Z 22006KT 14/10 A2985 RMK A01 T01370103  RH  080%=      5-min Rain = 0
KMC1 221720Z 22009KT 14/10 A2985 RMK A01 T01370103  RH  080%=      5-min Rain = 0
KMC1 221721Z 23008KT 14/10 A2985 RMK A01 T01370103  RH  080%=      5-min Rain = 0
KMC1 221722Z 24007KT 14/10 A2985 RMK A01 T01370103  RH  079%=      5-min Rain = 0
KMC1 221723Z 23007KT 14/10 A2985 RMK A01 T01380103  RH  079%=      5-min Rain = 0
KMC1 221724Z 23006KT 14/10 A2984 RMK A01 T01380103  RH  079%=      5-min Rain = 0
KMC1 221725Z 24007KT 14/10 A2985 RMK A01 T01390103  RH  079%=      5-min Rain = 0
KMC1 221726Z 24011KT 14/10 A2985 RMK A01 T01390103  RH  079%=      5-min Rain = 0
KMC1 221727Z 23007KT 14/10 A2984 RMK A01 T01390103  RH  079%=      5-min Rain = 0
KMC1 221728Z 24010KT 14/10 A2984 RMK A01 T01390102  RH  078%=      5-min Rain = 0
KMC1 221729Z 23008KT 14/10 A2984 RMK A01 T01390102  RH  078%=      5-min Rain = 0
KMC1 221730Z 23009KT 14/10 A2984 RMK A01 T01390103  RH  079%=      5-min Rain = 0
KMC1 221731Z 22007KT 14/10 A2984 RMK A01 T01390103  RH  079%=      5-min Rain = 0
KMC1 221732Z 23007KT 14/10 A2984 RMK A01 T01390103  RH  078%=      5-min Rain = 0
KMC1 221733Z 22007KT 14/10 A2984 RMK A01 T01400103  RH  078%=      5-min Rain = 0
KMC1 221734Z 23007KT 14/10 A2984 RMK A01 T01400103  RH  078%=      5-min Rain = 0
KMC1 221735Z 23008KT 14/10 A2984 RMK A01 T01410103  RH  078%=      5-min Rain = 0
KMC1 221736Z 22006KT 14/10 A2984 RMK A01 T01410103  RH  078%=      5-min Rain = 0
KMC1 221737Z 23008KT 14/10 A2984 RMK A01 T01410104  RH  078%=      5-min Rain = 0
KMC1 221738Z 24005KT 14/10 A2984 RMK A01 T01420103  RH  077%=      5-min Rain = 0
KMC1 221739Z 24009G14KT 14/10 A2984 RMK A01 T01420103  RH  077%=      5-min Rain = 0
KMC1 221740Z 24009KT 14/10 A2984 RMK A01 T01420103  RH  077%=      5-min Rain = 0
KMC1 221741Z 23008KT 14/10 A2984 RMK A01 T01420103  RH  077%=      5-min Rain = 0
KMC1 221742Z 24007KT 14/10 A2985 RMK A01 T01420103  RH  077%=      5-min Rain = 0
KMC1 221743Z 25008G13KT 14/10 A2984 RMK A01 T01430103  RH  077%=      5-min Rain = 0
KMC1 221744Z 24008KT 14/10 A2984 RMK A01 T01430103  RH  077%=      5-min Rain = 0
KMC1 221745Z 24008KT 14/10 A2984 RMK A01 T01430102  RH  076%=      5-min Rain = 0
KMC1 221746Z 24007KT 14/10 A2984 RMK A01 T01430103  RH  076%=      5-min Rain = 0
KMC1 221747Z 25008KT 14/10 A2985 RMK A01 T01430103  RH  077%=      5-min Rain = 0
KMC1 221748Z 24009KT 14/10 A2985 RMK A01 T01440102  RH  076%=      5-min Rain = 0
KMC1 221749Z 24010KT 14/10 A2985 RMK A01 T01440102  RH  076%=      5-min Rain = 0
KMC1 221750Z 23008KT 14/10 A2985 RMK A01 T01440102  RH  076%=      5-min Rain = 0
KMC1 221751Z 23007KT 14/10 A2985 RMK A01 T01440103  RH  076%=      5-min Rain = 0
KMC1 221752Z 25009KT 15/10 A2984 RMK A01 T01450103  RH  076%=      5-min Rain = 0
KMC1 221753Z 24010KT 15/10 A2984 RMK A01 T01450103  RH  076%=      5-min Rain = 0
KMC1 221754Z 24008KT 14/10 A2984 RMK A01 T01440102  RH  075%=      5-min Rain = 0
KMC1 221755Z 25008KT 14/10 A2984 RMK A01 T01440103  RH  076%=      5-min Rain = 0
KMC1 221756Z 26011KT 14/10 A2984 RMK A01 T01440102  RH  076%=      5-min Rain = 0
KMC1 221757Z 26009G14KT 14/10 A2984 RMK A01 T01440102  RH  076%=      5-min Rain = 0
KMC1 221758Z 24007KT 14/10 A2984 RMK A01 T01440102  RH  076%=      5-min Rain = 0
KMC1 221759Z 26009KT 14/10 A2984 RMK A01 T01440102  RH  076%=      5-min Rain = 0
KMC1 221800Z 25009KT 14/10 A2984 RMK A01 T01440101  RH  075%=      5-min Rain = 0
KMC1 221801Z 26008KT 15/10 A2985 RMK A01 T01450102  RH  075%=      5-min Rain = 0
KMC1 221802Z 24008KT 15/10 A2985 RMK A01 T01450101  RH  075%=      5-min Rain = 0
KMC1 221803Z 25006KT 15/10 A2985 RMK A01 T01450101  RH  075%=      5-min Rain = 0
KMC1 221804Z 25007KT 15/10 A2984 RMK A01 T01450102  RH  075%=      5-min Rain = 0
KMC1 221805Z 24005KT 15/10 A2984 RMK A01 T01460103  RH  075%=      5-min Rain = 0
KMC1 221806Z 24007KT 15/10 A2984 RMK A01 T01470103  RH  075%=      5-min Rain = 0
KMC1 221807Z 23010KT 15/10 A2984 RMK A01 T01480101  RH  074%=      5-min Rain = 0
KMC1 221808Z 24008G13KT 15/10 A2984 RMK A01 T01480100  RH  073%=      5-min Rain = 0
KMC1 221809Z 24011KT 15/10 A2984 RMK A01 T01470101  RH  074%=      5-min Rain = 0
KMC1 221810Z 24008G13KT 15/10 A2984 RMK A01 T01470101  RH  074%=      5-min Rain = 0
KMC1 221811Z 21008KT 15/10 A2984 RMK A01 T01470101  RH  074%=      5-min Rain = 0
KMC1 221812Z 23010KT 15/10 A2984 RMK A01 T01470101  RH  074%=      5-min Rain = 0
KMC1 221813Z 23011KT 15/10 A2984 RMK A01 T01470101  RH  074%=      5-min Rain = 0
KMC1 221814Z 23010KT 15/10 A2984 RMK A01 T01470101  RH  074%=      5-min Rain = 0
KMC1 221815Z 23010KT 15/10 A2984 RMK A01 T01480101  RH  074%=      5-min Rain = 0
KMC1 221816Z 24006KT 15/10 A2984 RMK A01 T01480102  RH  074%=      5-min Rain = 0
KMC1 221817Z 24006KT 15/10 A2983 RMK A01 T01490101  RH  073%=      5-min Rain = 0
KMC1 221818Z 23006G11KT 15/10 A2983 RMK A01 T01510103  RH  073%=      5-min Rain = 0
KMC1 221819Z 23010KT 15/10 A2983 RMK A01 T01520102  RH  072%=      5-min Rain = 0
KMC1 221820Z 24009KT 15/10 A2983 RMK A01 T01530102  RH  072%=      5-min Rain = 0
KMC1 221821Z 24010KT 15/10 A2983 RMK A01 T01520101  RH  072%=      5-min Rain = 0
KMC1 221822Z 23010KT 15/10 A2983 RMK A01 T01510101  RH  072%=      5-min Rain = 0
KMC1 221823Z 23011G16KT 15/10 A2983 RMK A01 T01520100  RH  071%=      5-min Rain = 0
KMC1 221824Z 23010KT 15/10 A2983 RMK A01 T01520099  RH  071%=      5-min Rain = 0
KMC1 221825Z 24008KT 15/10 A2983 RMK A01 T01530100  RH  071%=      5-min Rain = 0
KMC1 221826Z 23010KT 15/10 A2983 RMK A01 T01530099  RH  070%=      5-min Rain = 0
KMC1 221827Z 22009KT 15/10 A2983 RMK A01 T01530100  RH  071%=      5-min Rain = 0
KMC1 221828Z 22007KT 15/10 A2983 RMK A01 T01540101  RH  071%=      5-min Rain = 0
KMC1 221829Z 24008KT 16/10 A2983 RMK A01 T01550102  RH  070%=      5-min Rain = 0
KMC1 221830Z 22009KT 16/10 A2983 RMK A01 T01560101  RH  070%=      5-min Rain = 0
KMC1 221831Z 21009G14KT 16/10 A2983 RMK A01 T01560101  RH  070%=      5-min Rain = 0
KMC1 221832Z 22010KT 16/10 A2983 RMK A01 T01560099  RH  069%=      5-min Rain = 0
KMC1 221833Z 22008KT 16/10 A2983 RMK A01 T01560100  RH  069%=      5-min Rain = 0
KMC1 221834Z 22008KT 16/10 A2983 RMK A01 T01570102  RH  070%=      5-min Rain = 0
KMC1 221835Z 22008KT 16/10 A2983 RMK A01 T01580101  RH  069%=      5-min Rain = 0
KMC1 221836Z 24008KT 16/10 A2983 RMK A01 T01590101  RH  068%=      5-min Rain = 0
KMC1 221837Z 22009KT 16/10 A2983 RMK A01 T01590102  RH  069%=      5-min Rain = 0
KMC1 221838Z 25006G11KT 16/10 A2983 RMK A01 T01590102  RH  069%=      5-min Rain = 0
KMC1 221839Z 24007KT 16/10 A2983 RMK A01 T01610102  RH  068%=      5-min Rain = 0
KMC1 221840Z 22010KT 16/10 A2983 RMK A01 T01610101  RH  067%=      5-min Rain = 0
KMC1 221841Z 24009G15KT 16/10 A2983 RMK A01 T01610099  RH  067%=      5-min Rain = 0
KMC1 221842Z 24010KT 16/10 A2983 RMK A01 T01600098  RH  067%=      5-min Rain = 0
KMC1 221843Z 25010KT 16/10 A2983 RMK A01 T01580098  RH  067%=      5-min Rain = 0
KMC1 221844Z 25010KT 16/10 A2983 RMK A01 T01570098  RH  068%=      5-min Rain = 0
KMC1 221845Z 25009KT 16/10 A2983 RMK A01 T01580098  RH  068%=      5-min Rain = 0
KMC1 221846Z 25006KT 16/10 A2983 RMK A01 T01580098  RH  068%=      5-min Rain = 0
KMC1 221847Z 24007KT 16/10 A2982 RMK A01 T01580099  RH  068%=      5-min Rain = 0
KMC1 221848Z 24006KT 16/10 A2982 RMK A01 T01590099  RH  068%=      5-min Rain = 0
KMC1 221849Z 24006KT 16/10 A2982 RMK A01 T01590099  RH  067%=      5-min Rain = 0
KMC1 221850Z 25008KT 16/10 A2982 RMK A01 T01610100  RH  067%=      5-min Rain = 0
KMC1 221851Z 25008KT 16/10 A2982 RMK A01 T01620099  RH  066%=      5-min Rain = 0
KMC1 221852Z 23007KT 16/10 A2982 RMK A01 T01630098  RH  065%=      5-min Rain = 0
KMC1 221853Z 23008KT 16/10 A2982 RMK A01 T01640098  RH  065%=      5-min Rain = 0
KMC1 221854Z 25010KT 16/10 A2982 RMK A01 T01630097  RH  065%=      5-min Rain = 0
KMC1 221855Z 24007KT 16/10 A2982 RMK A01 T01630096  RH  064%=      5-min Rain = 0
KMC1 221856Z 24009KT 16/10 A2982 RMK A01 T01640096  RH  064%=      5-min Rain = 0
KMC1 221857Z 24010KT 16/10 A2982 RMK A01 T01640095  RH  064%=      5-min Rain = 0
KMC1 221858Z 25008KT 16/09 A2982 RMK A01 T01630094  RH  064%=      5-min Rain = 0
KMC1 221859Z 24009KT 16/10 A2982 RMK A01 T01630095  RH  064%=      5-min Rain = 0
KMC1 221900Z 24009KT 16/10 A2982 RMK A01 T01640095  RH  064%=      5-min Rain = 0
KMC1 221901Z 25012KT 16/09 A2982 RMK A01 T01640093  RH  063%=      5-min Rain = 0
KMC1 221902Z 25009KT 16/09 A2982 RMK A01 T01620093  RH  064%=      5-min Rain = 0
KMC1 221903Z 25010KT 16/09 A2982 RMK A01 T01620094  RH  064%=      5-min Rain = 0
KMC1 221904Z 25007KT 16/10 A2982 RMK A01 T01640095  RH  064%=      5-min Rain = 0
KMC1 221905Z 26008KT 17/10 A2982 RMK A01 T01660098  RH  064%=      5-min Rain = 0
KMC1 221906Z 26008KT 17/10 A2982 RMK A01 T01690098  RH  063%=      5-min Rain = 0
KMC1 221907Z 25008KT 17/10 A2982 RMK A01 T01720096  RH  061%=      5-min Rain = 0
KMC1 221908Z 25010G15KT 17/10 A2982 RMK A01 T01720095  RH  061%=      5-min Rain = 0
KMC1 221909Z 25007KT 17/10 A2982 RMK A01 T01710095  RH  061%=      5-min Rain = 0
KMC1 221910Z 26006KT 17/10 A2982 RMK A01 T01710096  RH  061%=      5-min Rain = 0
KMC1 221911Z 26007KT 17/10 A2982 RMK A01 T01710096  RH  061%=      5-min Rain = 0
KMC1 221912Z 26012KT 17/10 A2982 RMK A01 T01710095  RH  061%=      5-min Rain = 0
KMC1 221913Z 25008G14KT 17/09 A2982 RMK A01 T01690094  RH  061%=      5-min Rain = 0
KMC1 221914Z 25007G12KT 17/10 A2982 RMK A01 T01680095  RH  062%=      5-min Rain = 0
KMC1 221915Z 25008KT 17/10 A2982 RMK A01 T01690095  RH  062%=      5-min Rain = 0
KMC1 221916Z 23005KT 17/10 A2982 RMK A01 T01700095  RH  061%=      5-min Rain = 0
KMC1 221917Z 25005KT 17/10 A2982 RMK A01 T01700097  RH  062%=      5-min Rain = 0
KMC1 221918Z 25007KT 17/10 A2982 RMK A01 T01700096  RH  062%=      5-min Rain = 0
KMC1 221919Z 24009KT 17/10 A2982 RMK A01 T01700095  RH  061%=      5-min Rain = 0
KMC1 221920Z 23009KT 17/09 A2982 RMK A01 T01680093  RH  061%=      5-min Rain = 0
KMC1 221921Z 25007KT 17/09 A2981 RMK A01 T01670094  RH  062%=      5-min Rain = 0
KMC1 221922Z 25007KT 17/09 A2981 RMK A01 T01670093  RH  062%=      5-min Rain = 0
KMC1 221923Z 25007KT 17/09 A2981 RMK A01 T01670094  RH  062%=      5-min Rain = 0
KMC1 221924Z 24010KT 17/09 A2981 RMK A01 T01690092  RH  060%=      5-min Rain = 0
KMC1 221925Z 25011KT 17/09 A2981 RMK A01 T01690090  RH  059%=      5-min Rain = 0
KMC1 221926Z 25008KT 17/09 A2981 RMK A01 T01670089  RH  060%=      5-min Rain = 0
KMC1 221927Z 25008KT 17/09 A2981 RMK A01 T01680091  RH  061%=      5-min Rain = 0
KMC1 221928Z 25006KT 17/09 A2981 RMK A01 T01690091  RH  060%=      5-min Rain = 0
KMC1 221929Z 25010KT 17/09 A2981 RMK A01 T01700091  RH  059%=      5-min Rain = 0
KMC1 221930Z 27009KT 17/09 A298 RMK A01 T01710088  RH  058%=      5-min Rain = 0
KMC1 221931Z 27012KT 17/09 A298 RMK A01 T01710087  RH  057%=      5-min Rain = 0
KMC1 221932Z 27011KT 17/09 A298 RMK A01 T01710087  RH  057%=      5-min Rain = 0
KMC1 221933Z 28007KT 17/09 A298 RMK A01 T01710088  RH  058%=      5-min Rain = 0
KMC1 221934Z 28010KT 17/09 A298 RMK A01 T01740092  RH  059%=      5-min Rain = 0
KMC1 221935Z 28007KT 18/09 A2981 RMK A01 T01760089  RH  057%=      5-min Rain = 0
KMC1 221936Z 28009KT 18/09 A2981 RMK A01 T01770090  RH  057%=      5-min Rain = 0
KMC1 221937Z 27007KT 18/09 A2981 RMK A01 T01760089  RH  057%=      5-min Rain = 0
KMC1 221938Z 27005KT 18/09 A2981 RMK A01 T01770092  RH  057%=      5-min Rain = 0
KMC1 221939Z 27004KT 18/09 A298 RMK A01 T01780092  RH  057%=      5-min Rain = 0
KMC1 221940Z 29007KT 18/09 A298 RMK A01 T01800091  RH  056%=      5-min Rain = 0
KMC1 221941Z 28006KT 18/09 A298 RMK A01 T01820092  RH  056%=      5-min Rain = 0
KMC1 221942Z 28010KT 18/09 A298 RMK A01 T01830087  RH  054%=      5-min Rain = 0
KMC1 221943Z 27009KT 18/09 A298 RMK A01 T01820087  RH  054%=      5-min Rain = 0
KMC1 221944Z 28010KT 18/08 A298 RMK A01 T01800083  RH  053%=      5-min Rain = 0
KMC1 221945Z 28009KT 18/08 A298 RMK A01 T01760082  RH  054%=      5-min Rain = 0
KMC1 221946Z 26008G13KT 17/08 A298 RMK A01 T01740083  RH  055%=      5-min Rain = 0
KMC1 221947Z 26007KT 17/08 A298 RMK A01 T01740083  RH  055%=      5-min Rain = 0
KMC1 221948Z 26003KT 18/08 A298 RMK A01 T01750084  RH  055%=      5-min Rain = 0
KMC1 221949Z 27006KT 18/09 A298 RMK A01 T01760086  RH  056%=      5-min Rain = 0
KMC1 221950Z 28007G12KT 18/08 A298 RMK A01 T01770084  RH  054%=      5-min Rain = 0
KMC1 221951Z 26010KT 18/09 A298 RMK A01 T01770086  RH  055%=      5-min Rain = 0
KMC1 221952Z 28008KT 18/09 A298 RMK A01 T01770085  RH  055%=      5-min Rain = 0
KMC1 221953Z 26009KT 18/09 A298 RMK A01 T01770086  RH  055%=      5-min Rain = 0
KMC1 221954Z 26008KT 18/09 A298 RMK A01 T01770086  RH  055%=      5-min Rain = 0
KMC1 221955Z 26007KT 18/09 A298 RMK A01 T01790087  RH  055%=      5-min Rain = 0
KMC1 221956Z 29004KT 18/08 A298 RMK A01 T01800084  RH  054%=      5-min Rain = 0
KMC1 221957Z 30004KT 18/09 A298 RMK A01 T01800086  RH  054%=      5-min Rain = 0
KMC1 221958Z 29006KT 18/09 A298 RMK A01 T01810087  RH  054%=      5-min Rain = 0
KMC1 221959Z 29005KT 18/09 A298 RMK A01 T01820086  RH  053%=      5-min Rain = 0
KMC1 222000Z 28006KT 18/09 A298 RMK A01 T01810085  RH  053%=      5-min Rain = 0
KMC1 222001Z 27006KT 18/09 A298 RMK A01 T01810086  RH  054%=      5-min Rain = 0
KMC1 222002Z 27006KT 18/09 A298 RMK A01 T01820086  RH  053%=      5-min Rain = 0
KMC1 222003Z 29004KT 18/09 A298 RMK A01 T01820090  RH  055%=      5-min Rain = 0
KMC1 222004Z 30005KT 18/09 A298 RMK A01 T01830087  RH  053%=      5-min Rain = 0
KMC1 222005Z 30005KT 18/09 A298 RMK A01 T01830085  RH  053%=      5-min Rain = 0
KMC1 222006Z 29003KT 18/09 A298 RMK A01 T01830088  RH  054%=      5-min Rain = 0
KMC1 222007Z 33006KT 19/09 A298 RMK A01 T01850086  RH  053%=      5-min Rain = 0
KMC1 222008Z 33008KT 19/09 A298 RMK A01 T01850085  RH  052%=      5-min Rain = 0
KMC1 222009Z 32009KT 18/08 A298 RMK A01 T01840082  RH  051%=      5-min Rain = 0
KMC1 222010Z 33007KT 18/08 A298 RMK A01 T01830082  RH  052%=      5-min Rain = 0
KMC1 222011Z 33007KT 18/08 A298 RMK A01 T01820083  RH  052%=      5-min Rain = 0
KMC1 222012Z 33008KT 18/08 A298 RMK A01 T01820081  RH  051%=      5-min Rain = 0
KMC1 222013Z 32005KT 18/08 A298 RMK A01 T01810082  RH  052%=      5-min Rain = 0
KMC1 222014Z 31006KT 18/08 A298 RMK A01 T01810082  RH  053%=      5-min Rain = 0
KMC1 222015Z 30008KT 18/08 A298 RMK A01 T01810082  RH  052%=      5-min Rain = 0
KMC1 222016Z 29007KT 18/08 A298 RMK A01 T01820077  RH  050%=      5-min Rain = 0
KMC1 222017Z 28004KT 18/08 A298 RMK A01 T01820076  RH  050%=      5-min Rain = 0
KMC1 222018Z 28008KT 18/08 A2979 RMK A01 T01830079  RH  051%=      5-min Rain = 0
KMC1 222019Z 29006KT 19/08 A298 RMK A01 T01860081  RH  050%=      5-min Rain = 0
KMC1 222020Z 34004KT 19/08 A298 RMK A01 T01880081  RH  050%=      5-min Rain = 0
KMC1 222021Z 30005KT 19/08 A298 RMK A01 T01890084  RH  050%=      5-min Rain = 0
KMC1 222022Z 34006KT 19/08 A298 RMK A01 T01910083  RH  050%=      5-min Rain = 0
KMC1 222023Z 35005KT 19/08 A298 RMK A01 T01900076  RH  048%=      5-min Rain = 0
KMC1 222024Z 35005KT 19/07 A298 RMK A01 T01850074  RH  048%=      5-min Rain = 0
KMC1 222025Z 34005KT 18/08 A298 RMK A01 T01830077  RH  050%=      5-min Rain = 0
KMC1 222026Z 32004KT 18/08 A298 RMK A01 T01820078  RH  050%=      5-min Rain = 0
KMC1 222027Z 28007KT 18/08 A298 RMK A01 T01820077  RH  050%=      5-min Rain = 0
KMC1 222028Z 30004KT 18/08 A298 RMK A01 T01840080  RH  050%=      5-min Rain = 0
KMC1 222029Z 33006KT 19/08 A298 RMK A01 T01870080  RH  050%=      5-min Rain = 0
KMC1 222030Z 29010KT 19/08 A298 RMK A01 T01890079  RH  049%=      5-min Rain = 0
KMC1 222031Z 31010KT 19/07 A298 RMK A01 T01890074  RH  047%=      5-min Rain = 0
KMC1 222032Z 31008KT 19/08 A298 RMK A01 T01880077  RH  048%=      5-min Rain = 0
KMC1 222033Z 33008KT 19/08 A298 RMK A01 T01880076  RH  048%=      5-min Rain = 0
KMC1 222034Z 31011KT 19/07 A2979 RMK A01 T01880072  RH  047%=      5-min Rain = 0
KMC1 222035Z 30012KT 19/07 A298 RMK A01 T01860073  RH  048%=      5-min Rain = 0
KMC1 222036Z 30011KT 19/07 A298 RMK A01 T01850073  RH  048%=      5-min Rain = 0
KMC1 222037Z 31008KT 18/07 A298 RMK A01 T01840073  RH  048%=      5-min Rain = 0
KMC1 222038Z 31007KT 18/07 A298 RMK A01 T01830073  RH  049%=      5-min Rain = 0
KMC1 222039Z 30009KT 18/08 A298 RMK A01 T01830075  RH  049%=      5-min Rain = 0
KMC1 222040Z 30008KT 19/07 A298 RMK A01 T01850073  RH  048%=      5-min Rain = 0
KMC1 222041Z 29006KT 19/07 A298 RMK A01 T01860074  RH  048%=      5-min Rain = 0
KMC1 222042Z 30009KT 19/08 A298 RMK A01 T01880077  RH  048%=      5-min Rain = 0
KMC1 222043Z 31008KT 19/08 A298 RMK A01 T01890076  RH  048%=      5-min Rain = 0
KMC1 222044Z 32008KT 19/07 A298 RMK A01 T01870073  RH  047%=      5-min Rain = 0
KMC1 222045Z 34010KT 19/07 A298 RMK A01 T01860072  RH  047%=      5-min Rain = 0
KMC1 222046Z 34008KT 18/07 A298 RMK A01 T01830071  RH  048%=      5-min Rain = 0
KMC1 222047Z 33007KT 18/07 A298 RMK A01 T01820071  RH  048%=      5-min Rain = 0
KMC1 222048Z 32005KT 18/07 A298 RMK A01 T01810073  RH  049%=      5-min Rain = 0
KMC1 222049Z 32007KT 18/07 A298 RMK A01 T01820073  RH  049%=      5-min Rain = 0
KMC1 222050Z 31005KT 18/07 A298 RMK A01 T01830073  RH  049%=      5-min Rain = 0
KMC1 222051Z 30005KT 18/08 A298 RMK A01 T01830076  RH  049%=      5-min Rain = 0
KMC1 222052Z 32004KT 19/08 A298 RMK A01 T01850077  RH  050%=      5-min Rain = 0
KMC1 222053Z 32008KT 19/08 A298 RMK A01 T01860077  RH  049%=      5-min Rain = 0
KMC1 222054Z 32008KT 19/08 A298 RMK A01 T01860077  RH  049%=      5-min Rain = 0
KMC1 222055Z 33009KT 19/08 A298 RMK A01 T01860076  RH  049%=      5-min Rain = 0
KMC1 222056Z 33006KT 19/08 A298 RMK A01 T01850075  RH  049%=      5-min Rain = 0
KMC1 222057Z 32005KT 18/08 A298 RMK A01 T01840077  RH  049%=      5-min Rain = 0
KMC1 222058Z 32005KT 18/08 A298 RMK A01 T01840076  RH  049%=      5-min Rain = 0
KMC1 222059Z 33007KT 18/08 A298 RMK A01 T01840075  RH  049%=      5-min Rain = 0
KMC1 222100Z 35009KT 18/07 A298 RMK A01 T01840073  RH  048%=      5-min Rain = 0
KMC1 222101Z 34009KT 18/07 A298 RMK A01 T01840073  RH  048%=      5-min Rain = 0
KMC1 222102Z 33011KT 18/07 A298 RMK A01 T01840073  RH  048%=      5-min Rain = 0
KMC1 222103Z 33008KT 18/07 A298 RMK A01 T01840070  RH  047%=      5-min Rain = 0
KMC1 222104Z 33007KT 18/07 A298 RMK A01 T01840069  RH  047%=      5-min Rain = 0
KMC1 222105Z 31007KT 18/07 A298 RMK A01 T01840073  RH  048%=      5-min Rain = 0
KMC1 222106Z 33005KT 18/07 A298 RMK A01 T01840074  RH  049%=      5-min Rain = 0
KMC1 222107Z 32008KT 19/07 A298 RMK A01 T01850073  RH  048%=      5-min Rain = 0
KMC1 222108Z 34010KT 19/07 A298 RMK A01 T01850072  RH  048%=      5-min Rain = 0
KMC1 222109Z 33010KT 19/07 A298 RMK A01 T01850070  RH  047%=      5-min Rain = 0
KMC1 222110Z 34008KT 19/07 A298 RMK A01 T01850071  RH  047%=      5-min Rain = 0
KMC1 222111Z 33007KT 18/07 A298 RMK A01 T01840071  RH  048%=      5-min Rain = 0
KMC1 222112Z 34008KT 18/07 A298 RMK A01 T01840071  RH  048%=      5-min Rain = 0
KMC1 222113Z 34009KT 18/07 A298 RMK A01 T01840066  RH  046%=      5-min Rain = 0
KMC1 222114Z 33007KT 18/07 A298 RMK A01 T01830067  RH  047%=      5-min Rain = 0
KMC1 222115Z 34008KT 18/07 A298 RMK A01 T01830068  RH  047%=      5-min Rain = 0
KMC1 222116Z 33008KT 18/07 A298 RMK A01 T01830067  RH  047%=      5-min Rain = 0
KMC1 222117Z 33009KT 18/07 A298 RMK A01 T01830065  RH  046%=      5-min Rain = 0
KMC1 222118Z 33007KT 18/06 A298 RMK A01 T01830062  RH  045%=      5-min Rain = 0
KMC1 222119Z 32007KT 18/06 A298 RMK A01 T01830062  RH  045%=      5-min Rain = 0
KMC1 222120Z 33008KT 18/06 A298 RMK A01 T01830063  RH  045%=      5-min Rain = 0
KMC1 222121Z 31006KT 18/06 A298 RMK A01 T01840060  RH  044%=      5-min Rain = 0
KMC1 222122Z 32006KT 18/06 A298 RMK A01 T01840060  RH  044%=      5-min Rain = 0
KMC1 222123Z 33008KT 19/06 A298 RMK A01 T01850059  RH  044%=      5-min Rain = 0
KMC1 222124Z 35007KT 19/06 A298 RMK A01 T01850055  RH  043%=      5-min Rain = 0
KMC1 222125Z 35008KT 19/06 A298 RMK A01 T01850056  RH  043%=      5-min Rain = 0
KMC1 222126Z 34006KT 19/06 A298 RMK A01 T01850056  RH  043%=      5-min Rain = 0
KMC1 222127Z 36009KT 19/06 A298 RMK A01 T01850055  RH  042%=      5-min Rain = 0
KMC1 222128Z 35007KT 19/05 A298 RMK A01 T01850052  RH  042%=      5-min Rain = 0
KMC1 222129Z 34008G13KT 19/05 A298 RMK A01 T01860053  RH  042%=      5-min Rain = 0
KMC1 222130Z 33010KT 19/05 A2981 RMK A01 T01860045  RH  039%=      5-min Rain = 0
KMC1 222131Z 34006KT 19/04 A2981 RMK A01 T01860044  RH  039%=      5-min Rain = 0
KMC1 222132Z 33008KT 19/04 A2981 RMK A01 T01870043  RH  038%=      5-min Rain = 0
KMC1 222133Z 33008KT 19/04 A2981 RMK A01 T01880039  RH  037%=      5-min Rain = 0
KMC1 222134Z 33010KT 19/04 A2981 RMK A01 T01880037  RH  037%=      5-min Rain = 0
KMC1 222135Z 32010G16KT 19/04 A2981 RMK A01 T01880036  RH  036%=      5-min Rain = 0
KMC1 222136Z 32010KT 19/03 A2981 RMK A01 T01890033  RH  035%=      5-min Rain = 0
KMC1 222137Z 32010KT 19/03 A2981 RMK A01 T01900029  RH  034%=      5-min Rain = 0
KMC1 222138Z 31009KT 19/03 A2981 RMK A01 T01900032  RH  035%=      5-min Rain = 0
KMC1 222139Z 33014KT 19/03 A2981 RMK A01 T01910032  RH  035%=      5-min Rain = 0
KMC1 222140Z 31012KT 19/03 A2981 RMK A01 T01910031  RH  034%=      5-min Rain = 0
KMC1 222141Z 32013KT 19/03 A2981 RMK A01 T01900030  RH  034%=      5-min Rain = 0
KMC1 222142Z 31009KT 19/03 A2981 RMK A01 T01900030  RH  034%=      5-min Rain = 0
KMC1 222143Z 32011KT 19/03 A2981 RMK A01 T01900034  RH  035%=      5-min Rain = 0
KMC1 222144Z 33010KT 19/03 A2981 RMK A01 T01920031  RH  034%=      5-min Rain = 0
KMC1 222145Z 33011KT 19/03 A2981 RMK A01 T01920029  RH  034%=      5-min Rain = 0
KMC1 222146Z 33007KT 19/03 A2981 RMK A01 T01920028  RH  034%=      5-min Rain = 0
KMC1 222147Z 32006KT 19/03 A2981 RMK A01 T01910031  RH  035%=      5-min Rain = 0
KMC1 222148Z 33013KT 19/03 A2981 RMK A01 T01910032  RH  035%=      5-min Rain = 0
KMC1 222149Z 32010G16KT 19/03 A2981 RMK A01 T01910030  RH  034%=      5-min Rain = 0
KMC1 222150Z 31008KT 19/03 A2982 RMK A01 T01910033  RH  035%=      5-min Rain = 0
KMC1 222151Z 31012G17KT 19/03 A2982 RMK A01 T01900032  RH  035%=      5-min Rain = 0
KMC1 222152Z 31009KT 19/03 A2982 RMK A01 T01900031  RH  035%=      5-min Rain = 0
KMC1 222153Z 32012G17KT 19/03 A2982 RMK A01 T01900030  RH  035%=      5-min Rain = 0
KMC1 222154Z 32013KT 19/03 A2982 RMK A01 T01890026  RH  034%=      5-min Rain = 0
KMC1 222155Z 32012KT 19/03 A2982 RMK A01 T01880025  RH  034%=      5-min Rain = 0
KMC1 222156Z 32013G18KT 19/03 A2982 RMK A01 T01870025  RH  034%=      5-min Rain = 0
KMC1 222157Z 32013KT 19/02 A2982 RMK A01 T01860024  RH  034%=      5-min Rain = 0
KMC1 222158Z 30010KT 19/03 A2982 RMK A01 T01860025  RH  034%=      5-min Rain = 0
KMC1 222159Z 30010KT 19/03 A2982 RMK A01 T01860028  RH  035%=      5-min Rain = 0
KMC1 222200Z 30012KT 19/03 A2982 RMK A01 T01860027  RH  035%=      5-min Rain = 0
KMC1 222201Z 30010KT 19/03 A2982 RMK A01 T01860028  RH  035%=      5-min Rain = 0
KMC1 222202Z 31008KT 19/03 A2982 RMK A01 T01860027  RH  035%=      5-min Rain = 0
KMC1 222203Z 30012KT 19/03 A2982 RMK A01 T01860027  RH  035%=      5-min Rain = 0
KMC1 222204Z 31012KT 19/03 A2982 RMK A01 T01870028  RH  035%=      5-min Rain = 0
KMC1 222205Z 31010KT 19/03 A2982 RMK A01 T01870027  RH  034%=      5-min Rain = 0
KMC1 222206Z 31010KT 19/03 A2982 RMK A01 T01860028  RH  035%=      5-min Rain = 0
KMC1 222207Z 32009KT 19/03 A2982 RMK A01 T01860029  RH  035%=      5-min Rain = 0
KMC1 222208Z 31008KT 19/03 A2982 RMK A01 T01860030  RH  035%=      5-min Rain = 0
KMC1 222209Z 32006KT 19/03 A2982 RMK A01 T01850031  RH  036%=      5-min Rain = 0
KMC1 222210Z 31009KT 19/03 A2982 RMK A01 T01850032  RH  036%=      5-min Rain = 0
KMC1 222211Z 32009KT 19/03 A2982 RMK A01 T01850031  RH  036%=      5-min Rain = 0
KMC1 222212Z 32008KT 19/03 A2982 RMK A01 T01850031  RH  036%=      5-min Rain = 0
KMC1 222213Z 32007KT 18/03 A2982 RMK A01 T01840033  RH  036%=      5-min Rain = 0
KMC1 222214Z 33010KT 18/03 A2982 RMK A01 T01840034  RH  037%=      5-min Rain = 0
KMC1 222215Z 32008KT 18/04 A2982 RMK A01 T01840035  RH  037%=      5-min Rain = 0
KMC1 222216Z 32010KT 18/03 A2982 RMK A01 T01830034  RH  037%=      5-min Rain = 0
KMC1 222217Z 32009KT 18/03 A2982 RMK A01 T01830034  RH  037%=      5-min Rain = 0
KMC1 222218Z 32012G17KT 18/03 A2982 RMK A01 T01830034  RH  037%=      5-min Rain = 0
KMC1 222219Z 32015KT 18/03 A2983 RMK A01 T01830032  RH  037%=      5-min Rain = 0
KMC1 222220Z 31011KT 18/03 A2983 RMK A01 T01820031  RH  036%=      5-min Rain = 0
KMC1 222221Z 32013KT 18/03 A2983 RMK A01 T01820030  RH  036%=      5-min Rain = 0
KMC1 222222Z 33013G18KT 18/03 A2983 RMK A01 T01810027  RH  036%=      5-min Rain = 0
KMC1 222223Z 33012KT 18/03 A2983 RMK A01 T01820026  RH  035%=      5-min Rain = 0
KMC1 222224Z 32012G17KT 18/03 A2983 RMK A01 T01810025  RH  035%=      5-min Rain = 0
KMC1 222225Z 32008KT 18/03 A2983 RMK A01 T01810026  RH  035%=      5-min Rain = 0
KMC1 222226Z 32011G16KT 18/03 A2984 RMK A01 T01820026  RH  035%=      5-min Rain = 0
KMC1 222227Z 31013G19KT 18/02 A2984 RMK A01 T01810021  RH  034%=      5-min Rain = 0
KMC1 222228Z 31014KT 18/02 A2984 RMK A01 T01810017  RH  033%=      5-min Rain = 0
KMC1 222229Z 32011KT 18/02 A2984 RMK A01 T01800016  RH  033%=      5-min Rain = 0
KMC1 222230Z 33009KT 18/02 A2984 RMK A01 T01800016  RH  033%=      5-min Rain = 0
KMC1 222231Z 32008KT 18/02 A2984 RMK A01 T01800017  RH  034%=      5-min Rain = 0
KMC1 222232Z 33005KT 18/02 A2984 RMK A01 T01790019  RH  034%=      5-min Rain = 0
KMC1 222233Z 33010KT 18/02 A2984 RMK A01 T01790018  RH  034%=      5-min Rain = 0
KMC1 222234Z 33009KT 18/02 A2984 RMK A01 T01780016  RH  034%=      5-min Rain = 0
KMC1 222235Z 32009KT 18/02 A2985 RMK A01 T01780016  RH  034%=      5-min Rain = 0
KMC1 222236Z 31009KT 18/02 A2985 RMK A01 T01780015  RH  034%=      5-min Rain = 0
KMC1 222237Z 33007KT 18/02 A2985 RMK A01 T01780017  RH  034%=      5-min Rain = 0
KMC1 222238Z 32008KT 18/02 A2985 RMK A01 T01780017  RH  034%=      5-min Rain = 0
KMC1 222239Z 32010KT 18/02 A2985 RMK A01 T01780015  RH  034%=      5-min Rain = 0
KMC1 222240Z 32010KT 18/02 A2985 RMK A01 T01780015  RH  033%=      5-min Rain = 0
KMC1 222241Z 32009KT 18/01 A2985 RMK A01 T01770014  RH  033%=      5-min Rain = 0
KMC1 222242Z 32009KT 18/01 A2985 RMK A01 T01770014  RH  033%=      5-min Rain = 0
KMC1 222243Z 32007G12KT 18/02 A2985 RMK A01 T01770016  RH  034%=      5-min Rain = 0
KMC1 222244Z 31009KT 18/02 A2985 RMK A01 T01770015  RH  034%=      5-min Rain = 0
KMC1 222245Z 32007KT 18/02 A2985 RMK A01 T01770015  RH  034%=      5-min Rain = 0
KMC1 222246Z 32007KT 18/02 A2985 RMK A01 T01760016  RH  034%=      5-min Rain = 0
KMC1 222247Z 32007KT 18/02 A2985 RMK A01 T01760015  RH  034%=      5-min Rain = 0
KMC1 222248Z 31007KT 18/02 A2986 RMK A01 T01760016  RH  034%=      5-min Rain = 0
KMC1 222249Z 32007KT 18/02 A2986 RMK A01 T01760015  RH  034%=      5-min Rain = 0
KMC1 222250Z 32006KT 18/02 A2986 RMK A01 T01760016  RH  034%=      5-min Rain = 0
KMC1 222251Z 32006KT 18/02 A2986 RMK A01 T01760017  RH  035%=      5-min Rain = 0
KMC1 222252Z 32007KT 18/02 A2986 RMK A01 T01750016  RH  034%=      5-min Rain = 0
KMC1 222253Z 32006KT 18/02 A2986 RMK A01 T01750017  RH  035%=      5-min Rain = 0
KMC1 222254Z 33005KT 18/02 A2986 RMK A01 T01750017  RH  035%=      5-min Rain = 0
KMC1 222255Z 33007KT 17/02 A2986 RMK A01 T01740017  RH  035%=      5-min Rain = 0
KMC1 222256Z 33007KT 17/02 A2986 RMK A01 T01740016  RH  035%=      5-min Rain = 0
KMC1 222257Z 33007KT 17/02 A2986 RMK A01 T01740015  RH  034%=      5-min Rain = 0
KMC1 222258Z 32007KT 17/02 A2986 RMK A01 T01740015  RH  034%=      5-min Rain = 0
KMC1 222259Z 33006KT 17/02 A2986 RMK A01 T01740017  RH  035%=      5-min Rain = 0
KMC1 222300Z 32008KT 17/02 A2986 RMK A01 T01740017  RH  035%=      5-min Rain = 0
KMC1 222301Z 32005KT 17/02 A2986 RMK A01 T01730016  RH  035%=      5-min Rain = 0
KMC1 222302Z 32007KT 17/02 A2986 RMK A01 T01730019  RH  035%=      5-min Rain = 0
KMC1 222303Z 32006KT 17/02 A2986 RMK A01 T01730017  RH  035%=      5-min Rain = 0
KMC1 222304Z 33005KT 17/02 A2986 RMK A01 T01730018  RH  035%=      5-min Rain = 0
KMC1 222305Z 32006KT 17/02 A2986 RMK A01 T01720018  RH  035%=      5-min Rain = 0
KMC1 222306Z 32006KT 17/02 A2986 RMK A01 T01720017  RH  035%=      5-min Rain = 0
KMC1 222307Z 33007KT 17/02 A2986 RMK A01 T01720018  RH  035%=      5-min Rain = 0
KMC1 222308Z 33005KT 17/02 A2986 RMK A01 T01720018  RH  035%=      5-min Rain = 0
KMC1 222309Z 31009KT 17/02 A2986 RMK A01 T01710018  RH  036%=      5-min Rain = 0
KMC1 222310Z 32009KT 17/02 A2986 RMK A01 T01710016  RH  035%=      5-min Rain = 0
KMC1 222311Z 32009KT 17/02 A2986 RMK A01 T01710018  RH  036%=      5-min Rain = 0
KMC1 222312Z 32011KT 17/01 A2986 RMK A01 T01710014  RH  035%=      5-min Rain = 0
KMC1 222313Z 31008G14KT 17/01 A2987 RMK A01 T01710013  RH  035%=      5-min Rain = 0
KMC1 222314Z 31009G15KT 17/01 A2987 RMK A01 T01700013  RH  035%=      5-min Rain = 0
KMC1 222315Z 32010KT 17/01 A2987 RMK A01 T01700010  RH  034%=      5-min Rain = 0
KMC1 222316Z 32011KT 17/00 A2987 RMK A01 T01700004  RH  033%=      5-min Rain = 0
KMC1 222317Z 32009KT 17/00 A2987 RMK A01 T01700003  RH  032%=      5-min Rain = 0
KMC1 222318Z 32009KT 17/00 A2987 RMK A01 T01700003  RH  032%=      5-min Rain = 0
KMC1 222319Z 31013KT 17/00 A2987 RMK A01 T017000-0  RH  032%=      5-min Rain = 0
KMC1 222320Z 31012KT 17/M00 A2987 RMK A01 T01701001  RH  031%=      5-min Rain = 0
KMC1 222321Z 32012KT 17/M00 A2987 RMK A01 T01701001  RH  031%=      5-min Rain = 0
KMC1 222322Z 32012G17KT 17/M00 A2987 RMK A01 T01691001  RH  031%=      5-min Rain = 0
KMC1 222323Z 34023G32KT 17/01 A2988 RMK A01 T01680011  RH  035%=      5-min Rain = 0
KMC1 222324Z 34021G29KT 16/03 A2989 RMK A01 T01560032  RH  043%=      5-min Rain = 0
KMC1 222325Z 34022G28KT 15/04 A2989 RMK A01 T01470035  RH  047%=      5-min Rain = 0
KMC1 222326Z 33019G24KT 14/04 A2989 RMK A01 T01420036  RH  049%=      5-min Rain = 0
KMC1 222327Z 34016G21KT 14/04 A2989 RMK A01 T01390036  RH  050%=      5-min Rain = 0
KMC1 222328Z 33017G23KT 14/04 A2989 RMK A01 T01380037  RH  051%=      5-min Rain = 0
KMC1 222329Z 34015G21KT 14/04 A299 RMK A01 T01360037  RH  051%=      5-min Rain = 0
KMC1 222330Z 34019G24KT 14/04 A299 RMK A01 T01350038  RH  052%=      5-min Rain = 0
KMC1 222331Z 35018G24KT 13/04 A299 RMK A01 T01340037  RH  052%=      5-min Rain = 0
KMC1 222332Z 34018KT 13/04 A299 RMK A01 T01320037  RH  052%=      5-min Rain = 0
KMC1 222333Z 35022G29KT 13/04 A299 RMK A01 T01320036  RH  052%=      5-min Rain = 0
KMC1 222334Z 35021G26KT 13/03 A299 RMK A01 T01300031  RH  051%=      5-min Rain = 0
KMC1 222335Z 34018G24KT 13/03 A299 RMK A01 T01290031  RH  051%=      5-min Rain = 0
KMC1 222336Z 34019G25KT 13/03 A299 RMK A01 T01280031  RH  052%=      5-min Rain = 0
KMC1 222337Z 34022G29KT 13/03 A299 RMK A01 T01270028  RH  051%=      5-min Rain = 0
KMC1 222338Z 35017G23KT 13/03 A2991 RMK A01 T01250027  RH  051%=      5-min Rain = 0
KMC1 222339Z 35020G27KT 12/03 A2991 RMK A01 T01240028  RH  052%=      5-min Rain = 0
KMC1 222340Z 34024KT 12/03 A2991 RMK A01 T01230027  RH  052%=      5-min Rain = 0
KMC1 222341Z 35022G27KT 12/03 A2991 RMK A01 T01210026  RH  052%=      5-min Rain = 0
KMC1 222342Z 35020G27KT 12/03 A2991 RMK A01 T01200025  RH  052%=      5-min Rain = 0
KMC1 222343Z 35020G30KT 12/03 A2991 RMK A01 T01190025  RH  052%=      5-min Rain = 0
KMC1 222344Z 34015G22KT 12/03 A2991 RMK A01 T01190025  RH  053%=      5-min Rain = 0
KMC1 222345Z 34014G19KT 12/03 A2991 RMK A01 T01180026  RH  053%=      5-min Rain = 0
KMC1 222346Z 35016G22KT 12/03 A2992 RMK A01 T01180026  RH  054%=      5-min Rain = 0
KMC1 222347Z 35018KT 12/03 A2992 RMK A01 T01170026  RH  054%=      5-min Rain = 0
KMC1 222348Z 35015G21KT 12/03 A2992 RMK A01 T01160025  RH  054%=      5-min Rain = 0
KMC1 222349Z 35017G24KT 12/03 A2992 RMK A01 T01150026  RH  054%=      5-min Rain = 0
KMC1 222350Z 35017KT 11/03 A2992 RMK A01 T01140025  RH  054%=      5-min Rain = 0
KMC1 222351Z 35016G22KT 11/03 A2992 RMK A01 T01140025  RH  055%=      5-min Rain = 0
KMC1 222352Z 35018G23KT 11/03 A2992 RMK A01 T01130025  RH  055%=      5-min Rain = 0
KMC1 222353Z 35016KT 11/03 A2993 RMK A01 T01120025  RH  055%=      5-min Rain = 0
KMC1 222354Z 35019G24KT 11/03 A2993 RMK A01 T01120025  RH  055%=      5-min Rain = 0
KMC1 222355Z 35018KT 11/02 A2993 RMK A01 T01110024  RH  055%=      5-min Rain = 0
KMC1 222356Z 35019G27KT 11/02 A2993 RMK A01 T01100024  RH  055%=      5-min Rain = 0
KMC1 222357Z 35014KT 11/02 A2993 RMK A01 T01100024  RH  056%=      5-min Rain = 0
KMC1 222358Z 34016G21KT 11/03 A2993 RMK A01 T01090025  RH  056%=      5-min Rain = 0
KMC1 222359Z 34014G20KT 11/02 A2994 RMK A01 T01080024  RH  056%=      5-min Rain = 0
KMC1 230000Z 35013KT 11/02 A2994 RMK A01 T01080024  RH  056%=      5-min Rain = 0
KMC1 230001Z 35015G22KT 11/02 A2994 RMK A01 T01070024  RH  056%=      5-min Rain = 0
KMC1 230002Z 33015G23KT 11/02 A2994 RMK A01 T01070024  RH  056%=      5-min Rain = 0
KMC1 230003Z 34015KT 11/02 A2994 RMK A01 T01060023  RH  056%=      5-min Rain = 0
KMC1 230004Z 35015KT 11/02 A2995 RMK A01 T01050022  RH  056%=      5-min Rain = 0
KMC1 230005Z 33014G19KT 11/02 A2995 RMK A01 T01050021  RH  056%=      5-min Rain = 0
KMC1 230006Z 34016G22KT 10/02 A2995 RMK A01 T01040020  RH  056%=      5-min Rain = 0
KMC1 230007Z 34014KT 10/02 A2995 RMK A01 T01030019  RH  056%=      5-min Rain = 0
KMC1 230008Z 35014KT 10/02 A2995 RMK A01 T01030018  RH  056%=      5-min Rain = 0
KMC1 230009Z 35015KT 10/02 A2995 RMK A01 T01020018  RH  056%=      5-min Rain = 0
KMC1 230010Z 36013G20KT 10/02 A2996 RMK A01 T01020017  RH  056%=      5-min Rain = 0
KMC1 230011Z 36021G30KT 10/02 A2996 RMK A01 T01010016  RH  056%=      5-min Rain = 0
KMC1 230012Z 35019G25KT 10/01 A2996 RMK A01 T01000014  RH  055%=      5-min Rain = 0
KMC1 230013Z 35017G25KT 10/01 A2996 RMK A01 T00990014  RH  056%=      5-min Rain = 0
KMC1 230014Z 35018KT 10/01 A2996 RMK A01 T00980014  RH  056%=      5-min Rain = 0
KMC1 230015Z 35014G19KT 10/01 A2996 RMK A01 T00980014  RH  056%=      5-min Rain = 0
KMC1 230016Z 35016G22KT 10/01 A2996 RMK A01 T00970014  RH  056%=      5-min Rain = 0
KMC1 230017Z 36013G18KT 10/01 A2996 RMK A01 T00960014  RH  056%=      5-min Rain = 0
KMC1 230018Z 35016G24KT 10/01 A2996 RMK A01 T00960014  RH  057%=      5-min Rain = 0
KMC1 230019Z 35018G23KT 10/01 A2996 RMK A01 T00950014  RH  057%=      5-min Rain = 0
KMC1 230020Z 36015G21KT 10/01 A2996 RMK A01 T00950014  RH  057%=      5-min Rain = 0
KMC1 230021Z 35015G24KT 10/01 A2996 RMK A01 T00950014  RH  057%=      5-min Rain = 0
KMC1 230022Z 35015G21KT 09/01 A2996 RMK A01 T00940013  RH  057%=      5-min Rain = 0
KMC1 230023Z 00013G19KT 09/01 A2997 RMK A01 T00940014  RH  057%=      5-min Rain = 0
KMC1 230024Z 36020KT 09/01 A2997 RMK A01 T00940013  RH  057%=      5-min Rain = 0
KMC1 230025Z 36019KT 09/01 A2997 RMK A01 T00930012  RH  057%=      5-min Rain = 0
KMC1 230026Z 00016G21KT 09/01 A2997 RMK A01 T00930011  RH  056%=      5-min Rain = 0
KMC1 230027Z 35017G22KT 09/01 A2997 RMK A01 T00930011  RH  057%=      5-min Rain = 0
KMC1 230028Z 36011KT 09/01 A2997 RMK A01 T00930012  RH  057%=      5-min Rain = 0
KMC1 230029Z 35019G25KT 09/01 A2997 RMK A01 T00920012  RH  057%=      5-min Rain = 0
KMC1 230030Z 36016G22KT 09/01 A2998 RMK A01 T00920010  RH  057%=      5-min Rain = 0
KMC1 230031Z 35015G21KT 09/01 A2998 RMK A01 T00920011  RH  057%=      5-min Rain = 0
KMC1 230032Z 35011KT 09/01 A2998 RMK A01 T00910010  RH  057%=      5-min Rain = 0
KMC1 230033Z 35014KT 09/01 A2997 RMK A01 T00910010  RH  057%=      5-min Rain = 0
KMC1 230034Z 35018G23KT 09/01 A2997 RMK A01 T00910009  RH  057%=      5-min Rain = 0
KMC1 230035Z 35013G18KT 09/01 A2997 RMK A01 T00900008  RH  056%=      5-min Rain = 0
KMC1 230036Z 35013G18KT 09/01 A2997 RMK A01 T00900009  RH  057%=      5-min Rain = 0
KMC1 230037Z 00014KT 09/01 A2998 RMK A01 T00900009  RH  057%=      5-min Rain = 0
KMC1 230038Z 35017G23KT 09/01 A2998 RMK A01 T00900008  RH  057%=      5-min Rain = 0
KMC1 230039Z 36013KT 09/01 A2999 RMK A01 T00890008  RH  057%=      5-min Rain = 0
KMC1 230040Z 36010KT 09/01 A30 RMK A01 T00900008  RH  057%=      5-min Rain = 0
KMC1 230041Z 35010G15KT 09/01 A30 RMK A01 T00900008  RH  057%=      5-min Rain = 0
KMC1 230042Z 35015KT 09/01 A3001 RMK A01 T00900008  RH  057%=      5-min Rain = 0
KMC1 230043Z 35013G18KT 09/01 A30 RMK A01 T00890008  RH  057%=      5-min Rain = 0
KMC1 230044Z 36014KT 09/01 A30 RMK A01 T00890007  RH  056%=      5-min Rain = 0
KMC1 230045Z 35012KT 09/01 A2999 RMK A01 T00890008  RH  057%=      5-min Rain = 0
KMC1 230046Z 35010G15KT 09/01 A2999 RMK A01 T00890007  RH  057%=      5-min Rain = 0
KMC1 230047Z 35011KT 09/01 A2999 RMK A01 T00880007  RH  057%=      5-min Rain = 0
KMC1 230048Z 35014KT 09/01 A2999 RMK A01 T00880007  RH  057%=      5-min Rain = 0
KMC1 230049Z 36013G18KT 09/01 A2999 RMK A01 T00880007  RH  057%=      5-min Rain = 0
KMC1 230050Z 36009KT 09/01 A30 RMK A01 T00880006  RH  057%=      5-min Rain = 0
KMC1 230051Z 36008KT 09/01 A30 RMK A01 T00870007  RH  057%=      5-min Rain = 0
KMC1 230052Z 36010KT 09/01 A30 RMK A01 T00870007  RH  057%=      5-min Rain = 0
KMC1 230053Z 35013G20KT 09/01 A30 RMK A01 T00870006  RH  057%=      5-min Rain = 0
KMC1 230054Z 35014G19KT 09/01 A30 RMK A01 T00870006  RH  057%=      5-min Rain = 0
KMC1 230055Z 35015G20KT 09/00 A3001 RMK A01 T00860004  RH  057%=      5-min Rain = 0
KMC1 230056Z 36010KT 09/01 A3001 RMK A01 T00860005  RH  056%=      5-min Rain = 0
KMC1 230057Z 34008KT 09/01 A3002 RMK A01 T00860005  RH  057%=      5-min Rain = 0
KMC1 230058Z 34009KT 09/01 A3003 RMK A01 T00860005  RH  057%=      5-min Rain = 0
KMC1 230059Z 35010G20KT 09/01 A3003 RMK A01 T00860006  RH  057%=      5-min Rain = 0
KMC1 230100Z 35011KT 09/01 A3003 RMK A01 T00850005  RH  057%=      5-min Rain = 0
KMC1 230101Z 35015G20KT 09/01 A3002 RMK A01 T00850005  RH  057%=      5-min Rain = 0
KMC1 230102Z 35019KT 09/00 A3001 RMK A01 T00850004  RH  057%=      5-min Rain = 0
KMC1 230103Z 35020G27KT 09/00 A3002 RMK A01 T00850002  RH  056%=      5-min Rain = 0
KMC1 230104Z 36018G24KT 09/00 A3003 RMK A01 T00850000  RH  055%=      5-min Rain = 0
KMC1 230105Z 35018G25KT 08/M00 A3004 RMK A01 T00841001  RH  055%=      5-min Rain = 0
KMC1 230106Z 35013G20KT 08/M00 A3004 RMK A01 T00831002  RH  055%=      5-min Rain = 0
KMC1 230107Z 35015G23KT 08/M00 A3004 RMK A01 T00831003  RH  055%=      5-min Rain = 0
KMC1 230108Z 36014KT 08/M00 A3003 RMK A01 T00821004  RH  055%=      5-min Rain = 0
KMC1 230109Z 35011KT 08/M01 A3002 RMK A01 T00811005  RH  055%=      5-min Rain = 0
KMC1 230110Z 34012KT 08/M00 A3003 RMK A01 T00801004  RH  055%=      5-min Rain = 0
KMC1 230111Z 33009KT 08/M01 A3004 RMK A01 T00791005  RH  055%=      5-min Rain = 0
KMC1 230112Z 35013G21KT 08/M01 A3005 RMK A01 T00791006  RH  055%=      5-min Rain = 0
KMC1 230113Z 35017KT 08/M01 A3005 RMK A01 T00781008  RH  054%=      5-min Rain = 0
KMC1 230114Z 36017G22KT 08/M01 A3005 RMK A01 T00781010  RH  054%=      5-min Rain = 0
KMC1 230115Z 35018KT 08/M01 A3005 RMK A01 T00771010  RH  054%=      5-min Rain = 0
KMC1 230116Z 35020G25KT 08/M01 A3005 RMK A01 T00761011  RH  054%=      5-min Rain = 0
KMC1 230117Z 36015G22KT 08/M01 A3004 RMK A01 T00761011  RH  054%=      5-min Rain = 0
KMC1 230118Z 35015G22KT 08/M01 A3004 RMK A01 T00751011  RH  054%=      5-min Rain = 0
KMC1 230119Z 36011G17KT 08/M01 A3004 RMK A01 T00751011  RH  055%=      5-min Rain = 0
KMC1 230120Z 00013G18KT 07/M01 A3004 RMK A01 T00741010  RH  055%=      5-min Rain = 0
KMC1 230121Z 35012KT 07/M01 A3005 RMK A01 T00731009  RH  056%=      5-min Rain = 0
KMC1 230122Z 35010KT 07/M01 A3006 RMK A01 T00731009  RH  056%=      5-min Rain = 0
KMC1 230123Z 33007KT 07/M01 A3008 RMK A01 T00721009  RH  056%=      5-min Rain = 0
KMC1 230124Z 34007KT 07/M01 A3008 RMK A01 T00721009  RH  056%=      5-min Rain = 0
KMC1 230125Z 34008G14KT 07/M01 A3008 RMK A01 T00731009  RH  056%=      5-min Rain = 0
KMC1 230126Z 33009KT 07/M01 A3008 RMK A01 T00731009  RH  056%=      5-min Rain = 0
KMC1 230127Z 34010KT 07/M01 A3007 RMK A01 T00721010  RH  056%=      5-min Rain = 0
KMC1 230128Z 34013KT 07/M01 A3007 RMK A01 T00721010  RH  056%=      5-min Rain = 0
KMC1 230129Z 36013G20KT 07/M01 A3007 RMK A01 T00721010  RH  056%=      5-min Rain = 0
KMC1 230130Z 34012KT 07/M01 A3007 RMK A01 T00721011  RH  056%=      5-min Rain = 0
KMC1 230131Z 34012KT 07/M01 A3008 RMK A01 T00711011  RH  056%=      5-min Rain = 0
KMC1 230132Z 35010KT 07/M01 A3008 RMK A01 T00711011  RH  056%=      5-min Rain = 0
KMC1 230133Z 33012KT 07/M01 A3008 RMK A01 T00711011  RH  056%=      5-min Rain = 0
KMC1 230134Z 35011KT 07/M01 A3008 RMK A01 T00701012  RH  056%=      5-min Rain = 0
KMC1 230135Z 36009KT 07/M01 A3007 RMK A01 T00701012  RH  056%=      5-min Rain = 0
KMC1 230136Z 00009G15KT 07/M01 A3006 RMK A01 T00701011  RH  056%=      5-min Rain = 0
KMC1 230137Z 35009G14KT 07/M01 A3006 RMK A01 T00701012  RH  056%=      5-min Rain = 0
KMC1 230138Z 36013G18KT 07/M01 A3007 RMK A01 T00691013  RH  056%=      5-min Rain = 0
KMC1 230139Z 35012KT 07/M01 A3008 RMK A01 T00691013  RH  056%=      5-min Rain = 0
KMC1 230140Z 34009G14KT 07/M01 A3009 RMK A01 T00681013  RH  056%=      5-min Rain = 0
KMC1 230141Z 35010KT 07/M01 A3009 RMK A01 T00681013  RH  056%=      5-min Rain = 0
KMC1 230142Z 36008G13KT 07/M01 A301 RMK A01 T00681013  RH  056%=      5-min Rain = 0
KMC1 230143Z 00011G16KT 07/M01 A301 RMK A01 T00681013  RH  056%=      5-min Rain = 0
KMC1 230144Z 01014KT 07/M01 A3009 RMK A01 T00671014  RH  056%=      5-min Rain = 0
KMC1 230145Z 01012KT 07/M01 A3008 RMK A01 T00671014  RH  056%=      5-min Rain = 0
KMC1 230146Z 36012KT 07/M01 A3008 RMK A01 T00671013  RH  057%=      5-min Rain = 0
KMC1 230147Z 36016KT 07/M01 A3008 RMK A01 T00661014  RH  056%=      5-min Rain = 0
KMC1 230148Z 34014KT 07/M02 A3008 RMK A01 T00661015  RH  056%=      5-min Rain = 0
KMC1 230149Z 35012G17KT 07/M01 A3008 RMK A01 T00661014  RH  057%=      5-min Rain = 0
KMC1 230150Z 36012G18KT 07/M01 A3009 RMK A01 T00651014  RH  057%=      5-min Rain = 0
KMC1 230151Z 01012KT 07/M01 A3009 RMK A01 T00651014  RH  057%=      5-min Rain = 0
KMC1 230152Z 36009KT 07/M02 A301 RMK A01 T00651015  RH  057%=      5-min Rain = 0
KMC1 230153Z 35011KT 07/M01 A3009 RMK A01 T00651014  RH  057%=      5-min Rain = 0
KMC1 230154Z 00010G15KT 06/M01 A3009 RMK A01 T00641014  RH  058%=      5-min Rain = 0
KMC1 230155Z 01013G18KT 06/M01 A3009 RMK A01 T00641014  RH  057%=      5-min Rain = 0
KMC1 230201Z 00010KT 06/M02 A301 RMK A01 T00631015  RH  057%=      5-min Rain = 0
KMC1 230202Z 01013G19KT 06/M02 A301 RMK A01 T00631015  RH  057%=      5-min Rain = 0
KMC1 230203Z 35010KT 06/M02 A301 RMK A01 T00631016  RH  057%=      5-min Rain = 0
KMC1 230204Z 35011KT 06/M02 A301 RMK A01 T00631015  RH  057%=      5-min Rain = 0
KMC1 230205Z 36014KT 06/M02 A3009 RMK A01 T00621015  RH  058%=      5-min Rain = 0
KMC1 230206Z 35014KT 06/M02 A3009 RMK A01 T00621016  RH  057%=      5-min Rain = 0
KMC1 230207Z 00011KT 06/M02 A3009 RMK A01 T00621016  RH  058%=      5-min Rain = 0
KMC1 230208Z 36010KT 06/M02 A3009 RMK A01 T00611015  RH  058%=      5-min Rain = 0
KMC1 230209Z 36012KT 06/M02 A301 RMK A01 T00611016  RH  058%=      5-min Rain = 0
KMC1 230210Z 35011KT 06/M02 A3011 RMK A01 T00611017  RH  057%=      5-min Rain = 0
KMC1 230211Z 01012KT 06/M02 A3011 RMK A01 T00611016  RH  058%=      5-min Rain = 0
KMC1 230212Z 01012KT 06/M02 A301 RMK A01 T00611017  RH  057%=      5-min Rain = 0
KMC1 230213Z 34014KT 06/M02 A301 RMK A01 T00611017  RH  057%=      5-min Rain = 0
KMC1 230214Z 34011KT 06/M02 A3011 RMK A01 T00611017  RH  057%=      5-min Rain = 0
KMC1 230215Z 34013G18KT 06/M02 A3011 RMK A01 T00601017  RH  057%=      5-min Rain = 0
KMC1 230216Z 34009KT 06/M02 A3011 RMK A01 T00601017  RH  057%=      5-min Rain = 0
KMC1 230217Z 34008KT 06/M02 A3012 RMK A01 T00601016  RH  058%=      5-min Rain = 0
KMC1 230218Z 36009KT 06/M02 A3012 RMK A01 T00601016  RH  058%=      5-min Rain = 0
KMC1 230219Z 35011G16KT 06/M02 A3011 RMK A01 T00601016  RH  058%=      5-min Rain = 0
KMC1 230220Z 35013KT 06/M02 A3011 RMK A01 T00601017  RH  058%=      5-min Rain = 0
KMC1 230221Z 35012KT 06/M02 A3011 RMK A01 T00601016  RH  058%=      5-min Rain = 0
KMC1 230222Z 35015KT 06/M02 A3011 RMK A01 T00601016  RH  058%=      5-min Rain = 0
KMC1 230223Z 36011KT 06/M02 A3011 RMK A01 T00591018  RH  058%=      5-min Rain = 0
KMC1 230224Z 35014KT 06/M02 A3011 RMK A01 T00591017  RH  058%=      5-min Rain = 0
KMC1 230225Z 35014KT 06/M02 A3011 RMK A01 T00591018  RH  058%=      5-min Rain = 0
KMC1 230226Z 35014G25KT 06/M02 A3011 RMK A01 T00591018  RH  058%=      5-min Rain = 0
KMC1 230227Z 00019KT 06/M02 A301 RMK A01 T00581019  RH  058%=      5-min Rain = 0
KMC1 230228Z 00014KT 06/M02 A301 RMK A01 T00581021  RH  057%=      5-min Rain = 0
KMC1 230229Z 36020G25KT 06/M02 A301 RMK A01 T00581020  RH  057%=      5-min Rain = 0
KMC1 230230Z 35019KT 06/M02 A301 RMK A01 T00571020  RH  057%=      5-min Rain = 0
KMC1 230231Z 34015KT 06/M02 A3011 RMK A01 T00571020  RH  057%=      5-min Rain = 0
KMC1 230232Z 35018G23KT 06/M02 A301 RMK A01 T00571020  RH  058%=      5-min Rain = 0
KMC1 230233Z 35016KT 06/M02 A301 RMK A01 T00571021  RH  057%=      5-min Rain = 0
KMC1 230234Z 34017KT 06/M02 A3011 RMK A01 T00571021  RH  058%=      5-min Rain = 0
KMC1 230235Z 34017KT 06/M02 A3011 RMK A01 T00571021  RH  057%=      5-min Rain = 0
KMC1 230236Z 35017KT 06/M02 A3011 RMK A01 T00571021  RH  057%=      5-min Rain = 0
KMC1 230237Z 34013G20KT 06/M02 A3011 RMK A01 T00561021  RH  058%=      5-min Rain = 0
KMC1 230238Z 35016KT 06/M02 A3012 RMK A01 T00561021  RH  058%=      5-min Rain = 0
KMC1 230239Z 35015G20KT 06/M02 A3012 RMK A01 T00571020  RH  058%=      5-min Rain = 0
KMC1 230240Z 34015G21KT 06/M02 A3012 RMK A01 T00561021  RH  058%=      5-min Rain = 0
KMC1 230241Z 35015G21KT 06/M02 A3012 RMK A01 T00571020  RH  058%=      5-min Rain = 0
KMC1 230242Z 34014KT 06/M02 A3012 RMK A01 T00561021  RH  058%=      5-min Rain = 0
KMC1 230243Z 35015KT 06/M02 A3013 RMK A01 T00561021  RH  058%=      5-min Rain = 0
KMC1 230244Z 35013KT 06/M02 A3013 RMK A01 T00561020  RH  058%=      5-min Rain = 0
KMC1 230245Z 35014KT 06/M02 A3012 RMK A01 T00561020  RH  058%=      5-min Rain = 0
KMC1 230246Z 35013KT 06/M02 A3012 RMK A01 T00561020  RH  058%=      5-min Rain = 0
KMC1 230247Z 35012KT 06/M02 A3012 RMK A01 T00551020  RH  058%=      5-min Rain = 0
KMC1 230248Z 35013G19KT 06/M02 A3012 RMK A01 T00561019  RH  059%=      5-min Rain = 0
KMC1 230249Z 35012KT 06/M02 A3012 RMK A01 T00551019  RH  059%=      5-min Rain = 0
KMC1 230250Z 35012KT 06/M02 A3012 RMK A01 T00561019  RH  059%=      5-min Rain = 0
KMC1 230251Z 35008KT 06/M02 A3012 RMK A01 T00551018  RH  059%=      5-min Rain = 0
KMC1 230252Z 36011G16KT 06/M02 A3012 RMK A01 T00551018  RH  059%=      5-min Rain = 0
KMC1 230253Z 36014KT 06/M02 A3012 RMK A01 T00551019  RH  059%=      5-min Rain = 0
KMC1 230254Z 36012KT 06/M02 A3012 RMK A01 T00551019  RH  059%=      5-min Rain = 0
KMC1 230255Z 01013KT 06/M02 A3012 RMK A01 T00551019  RH  059%=      5-min Rain = 0
KMC1 230256Z 35011KT 06/M02 A3012 RMK A01 T00551019  RH  059%=      5-min Rain = 0
KMC1 230257Z 35007KT 06/M02 A3012 RMK A01 T00551018  RH  060%=      5-min Rain = 0
KMC1 230258Z 35011G16KT 06/M02 A3012 RMK A01 T00551017  RH  060%=      5-min Rain = 0
KMC1 230259Z 00012KT 05/M02 A3012 RMK A01 T00541018  RH  060%=      5-min Rain = 0
KMC1 230300Z 36015G20KT 05/M02 A3012 RMK A01 T00541019  RH  059%=      5-min Rain = 0
KMC1 230301Z 33016G21KT 05/M02 A3012 RMK A01 T00541020  RH  059%=      5-min Rain = 0
KMC1 230302Z 35015KT 05/M02 A3013 RMK A01 T00531021  RH  059%=      5-min Rain = 0
KMC1 230303Z 00011G16KT 05/M02 A3013 RMK A01 T00531020  RH  059%=      5-min Rain = 0
KMC1 230304Z 36013G18KT 05/M02 A3013 RMK A01 T00531020  RH  059%=      5-min Rain = 0
KMC1 230305Z 35016KT 05/M02 A3013 RMK A01 T00531021  RH  059%=      5-min Rain = 0
KMC1 230306Z 34017KT 05/M02 A3013 RMK A01 T00521022  RH  059%=      5-min Rain = 0
KMC1 230307Z 35016KT 05/M02 A3013 RMK A01 T00531023  RH  058%=      5-min Rain = 0
KMC1 230308Z 36012KT 05/M02 A3013 RMK A01 T00531022  RH  058%=      5-min Rain = 0
KMC1 230309Z 35016G21KT 05/M02 A3013 RMK A01 T00521023  RH  058%=      5-min Rain = 0
KMC1 230310Z 34012G19KT 05/M02 A3013 RMK A01 T00521024  RH  058%=      5-min Rain = 0
KMC1 230311Z 34011KT 05/M02 A3013 RMK A01 T00521024  RH  058%=      5-min Rain = 0
KMC1 230312Z 35010G15KT 05/M02 A3013 RMK A01 T00511023  RH  059%=      5-min Rain = 0
KMC1 230313Z 34013KT 05/M02 A3014 RMK A01 T00511024  RH  058%=      5-min Rain = 0
KMC1 230314Z 35016KT 05/M03 A3014 RMK A01 T00511025  RH  058%=      5-min Rain = 0
KMC1 230315Z 34013G18KT 05/M03 A3013 RMK A01 T00511026  RH  057%=      5-min Rain = 0
KMC1 230316Z 35014KT 05/M03 A3013 RMK A01 T00511027  RH  057%=      5-min Rain = 0
KMC1 230317Z 34014KT 05/M03 A3014 RMK A01 T00511027  RH  057%=      5-min Rain = 0
KMC1 230318Z 34012G18KT 05/M03 A3014 RMK A01 T00511027  RH  057%=      5-min Rain = 0
KMC1 230319Z 34013G18KT 05/M03 A3014 RMK A01 T00511029  RH  056%=      5-min Rain = 0
KMC1 230320Z 34010KT 05/M03 A3014 RMK A01 T00511029  RH  056%=      5-min Rain = 0
KMC1 230321Z 33011KT 05/M03 A3014 RMK A01 T00511029  RH  056%=      5-min Rain = 0
KMC1 230322Z 34013G19KT 05/M03 A3014 RMK A01 T00511030  RH  056%=      5-min Rain = 0
KMC1 230323Z 35013KT 05/M03 A3015 RMK A01 T00511031  RH  056%=      5-min Rain = 0
KMC1 230324Z 36011KT 05/M03 A3015 RMK A01 T00501031  RH  056%=      5-min Rain = 0
KMC1 230325Z 35012G19KT 05/M03 A3015 RMK A01 T00501031  RH  056%=      5-min Rain = 0
KMC1 230326Z 36014KT 05/M03 A3015 RMK A01 T00501031  RH  056%=      5-min Rain = 0
KMC1 230327Z 35012G18KT 05/M03 A3015 RMK A01 T00501032  RH  055%=      5-min Rain = 0
KMC1 230328Z 35014G19KT 05/M03 A3015 RMK A01 T00501033  RH  055%=      5-min Rain = 0
KMC1 230329Z 34013KT 05/M03 A3015 RMK A01 T00501033  RH  055%=      5-min Rain = 0
KMC1 230330Z 34012KT 05/M03 A3015 RMK A01 T00501033  RH  055%=      5-min Rain = 0
KMC1 230331Z 35011KT 05/M03 A3015 RMK A01 T00501034  RH  055%=      5-min Rain = 0
KMC1 230332Z 36015KT 05/M03 A3015 RMK A01 T00491034  RH  055%=      5-min Rain = 0
KMC1 230333Z 35014KT 05/M03 A3015 RMK A01 T00501034  RH  055%=      5-min Rain = 0
KMC1 230334Z 36015KT 05/M03 A3015 RMK A01 T00501033  RH  055%=      5-min Rain = 0
KMC1 230335Z 35016KT 05/M03 A3015 RMK A01 T00501033  RH  055%=      5-min Rain = 0
KMC1 230336Z 36014KT 05/M03 A3015 RMK A01 T00491033  RH  055%=      5-min Rain = 0
KMC1 230337Z 36010KT 05/M03 A3016 RMK A01 T00491033  RH  055%=      5-min Rain = 0
KMC1 230338Z 35009KT 05/M03 A3016 RMK A01 T00491033  RH  055%=      5-min Rain = 0
KMC1 230339Z 35014KT 05/M03 A3016 RMK A01 T00491032  RH  056%=      5-min Rain = 0
KMC1 230340Z 35015KT 05/M03 A3016 RMK A01 T00491032  RH  056%=      5-min Rain = 0
KMC1 230341Z 36013KT 05/M03 A3016 RMK A01 T00481033  RH  055%=      5-min Rain = 0
KMC1 230342Z 36012KT 05/M03 A3016 RMK A01 T00481034  RH  055%=      5-min Rain = 0
KMC1 230343Z 35015KT 05/M03 A3016 RMK A01 T00481033  RH  056%=      5-min Rain = 0
KMC1 230344Z 35015KT 05/M03 A3016 RMK A01 T00481034  RH  055%=      5-min Rain = 0
KMC1 230345Z 33010G18KT 05/M03 A3016 RMK A01 T00481034  RH  056%=      5-min Rain = 0
KMC1 230346Z 34013KT 05/M03 A3016 RMK A01 T00481034  RH  055%=      5-min Rain = 0
KMC1 230347Z 35011KT 05/M03 A3016 RMK A01 T00481034  RH  056%=      5-min Rain = 0
KMC1 230348Z 34011KT 05/M03 A3016 RMK A01 T00481033  RH  056%=      5-min Rain = 0
KMC1 230349Z 35012KT 05/M03 A3016 RMK A01 T00471034  RH  056%=      5-min Rain = 0
KMC1 230350Z 35012KT 05/M04 A3016 RMK A01 T00471036  RH  055%=      5-min Rain = 0
KMC1 230351Z 36010G15KT 05/M04 A3016 RMK A01 T00471036  RH  055%=      5-min Rain = 0
KMC1 230352Z 34011KT 05/M03 A3016 RMK A01 T00471034  RH  056%=      5-min Rain = 0
KMC1 230353Z 35015G21KT 05/M03 A3016 RMK A01 T00471034  RH  056%=      5-min Rain = 0
KMC1 230354Z 33016G21KT 05/M04 A3016 RMK A01 T00471036  RH  055%=      5-min Rain = 0
KMC1 230355Z 34015KT 05/M04 A3015 RMK A01 T00471037  RH  054%=      5-min Rain = 0
KMC1 230356Z 34015KT 05/M04 A3015 RMK A01 T00461037  RH  055%=      5-min Rain = 0
KMC1 230357Z 35013KT 05/M04 A3015 RMK A01 T00471037  RH  055%=      5-min Rain = 0
KMC1 230358Z 34013KT 05/M04 A3015 RMK A01 T00461037  RH  055%=      5-min Rain = 0
KMC1 230359Z 34011G16KT 05/M04 A3015 RMK A01 T00461037  RH  055%=      5-min Rain = 0
KMC1 230400Z 34015KT 05/M04 A3015 RMK A01 T00461038  RH  055%=      5-min Rain = 0
KMC1 230401Z 35014KT 05/M04 A3016 RMK A01 T00461038  RH  055%=      5-min Rain = 0
KMC1 230402Z 36013G18KT 05/M04 A3016 RMK A01 T00461038  RH  055%=      5-min Rain = 0
KMC1 230403Z 34010KT 05/M04 A3016 RMK A01 T00451038  RH  055%=      5-min Rain = 0
KMC1 230404Z 35011KT 05/M04 A3016 RMK A01 T00461037  RH  055%=      5-min Rain = 0
KMC1 230405Z 34015KT 05/M04 A3016 RMK A01 T00451038  RH  055%=      5-min Rain = 0
KMC1 230406Z 35011KT 05/M04 A3016 RMK A01 T00461038  RH  055%=      5-min Rain = 0
KMC1 230407Z 35011KT 05/M04 A3016 RMK A01 T00451038  RH  055%=      5-min Rain = 0
KMC1 230408Z 34011KT 05/M04 A3016 RMK A01 T00451038  RH  055%=      5-min Rain = 0
KMC1 230409Z 35015KT 05/M04 A3016 RMK A01 T00451038  RH  055%=      5-min Rain = 0
KMC1 230410Z 34012G18KT 05/M04 A3016 RMK A01 T00451039  RH  054%=      5-min Rain = 0
KMC1 230411Z 34013G18KT 05/M04 A3016 RMK A01 T00451038  RH  055%=      5-min Rain = 0
KMC1 230412Z 34010KT 05/M04 A3016 RMK A01 T00451039  RH  054%=      5-min Rain = 0
KMC1 230413Z 34011KT 05/M04 A3016 RMK A01 T00451038  RH  055%=      5-min Rain = 0
KMC1 230414Z 34012KT 05/M04 A3016 RMK A01 T00451039  RH  055%=      5-min Rain = 0
KMC1 230415Z 35010KT 04/M04 A3015 RMK A01 T00441039  RH  055%=      5-min Rain = 0
KMC1 230416Z 35009KT 05/M04 A3015 RMK A01 T00451038  RH  055%=      5-min Rain = 0
KMC1 230417Z 34013KT 04/M04 A3015 RMK A01 T00441038  RH  055%=      5-min Rain = 0
KMC1 230418Z 35012KT 04/M04 A3015 RMK A01 T00441039  RH  055%=      5-min Rain = 0
KMC1 230419Z 36012KT 04/M04 A3015 RMK A01 T00441039  RH  055%=      5-min Rain = 0
KMC1 230420Z 34013KT 04/M04 A3015 RMK A01 T00441039  RH  055%=      5-min Rain = 0
KMC1 230421Z 35011KT 04/M04 A3016 RMK A01 T00441039  RH  055%=      5-min Rain = 0
KMC1 230422Z 35009KT 04/M04 A3016 RMK A01 T00441038  RH  055%=      5-min Rain = 0
KMC1 230423Z 35012KT 04/M04 A3016 RMK A01 T00441038  RH  055%=      5-min Rain = 0
KMC1 230424Z 35012G17KT 04/M04 A3016 RMK A01 T00441038  RH  055%=      5-min Rain = 0
KMC1 230425Z 34012KT 04/M04 A3016 RMK A01 T00441039  RH  055%=      5-min Rain = 0
KMC1 230426Z 34009KT 04/M04 A3016 RMK A01 T00441039  RH  055%=      5-min Rain = 0
KMC1 230427Z 34011KT 04/M04 A3016 RMK A01 T00441039  RH  055%=      5-min Rain = 0
KMC1 230428Z 35010G15KT 04/M04 A3016 RMK A01 T00441040  RH  055%=      5-min Rain = 0
KMC1 230429Z 34016G23KT 04/M04 A3016 RMK A01 T00441040  RH  055%=      5-min Rain = 0
KMC1 230430Z 35015KT 04/M04 A3016 RMK A01 T00441041  RH  054%=      5-min Rain = 0
KMC1 230431Z 34014G19KT 04/M04 A3016 RMK A01 T00441040  RH  054%=      5-min Rain = 0
KMC1 230432Z 34015KT 04/M04 A3016 RMK A01 T00441040  RH  054%=      5-min Rain = 0
KMC1 230433Z 35010KT 04/M04 A3016 RMK A01 T00441040  RH  055%=      5-min Rain = 0
KMC1 230434Z 33011G18KT 04/M04 A3016 RMK A01 T00441039  RH  055%=      5-min Rain = 0
KMC1 230435Z 35010G15KT 04/M04 A3016 RMK A01 T00431040  RH  055%=      5-min Rain = 0
KMC1 230436Z 34011G16KT 04/M04 A3016 RMK A01 T00431039  RH  055%=      5-min Rain = 0
KMC1 230437Z 34010KT 04/M04 A3016 RMK A01 T00431040  RH  055%=      5-min Rain = 0
KMC1 230438Z 35012KT 04/M04 A3016 RMK A01 T00431039  RH  055%=      5-min Rain = 0
KMC1 230439Z 33014KT 04/M04 A3016 RMK A01 T00431040  RH  055%=      5-min Rain = 0
KMC1 230440Z 34011KT 04/M04 A3016 RMK A01 T00431041  RH  054%=      5-min Rain = 0
KMC1 230441Z 34014KT 04/M04 A3016 RMK A01 T00431041  RH  054%=      5-min Rain = 0
KMC1 230442Z 34013KT 04/M04 A3016 RMK A01 T00431041  RH  054%=      5-min Rain = 0
KMC1 230443Z 35010KT 04/M04 A3016 RMK A01 T00431041  RH  055%=      5-min Rain = 0
KMC1 230444Z 35010G15KT 04/M04 A3016 RMK A01 T00431040  RH  055%=      5-min Rain = 0
KMC1 230445Z 35010KT 04/M04 A3016 RMK A01 T00431039  RH  055%=      5-min Rain = 0
KMC1 230446Z 35012G17KT 04/M04 A3016 RMK A01 T00421040  RH  055%=      5-min Rain = 0
KMC1 230447Z 35015KT 04/M04 A3016 RMK A01 T00431040  RH  055%=      5-min Rain = 0
KMC1 230448Z 35016KT 04/M04 A3016 RMK A01 T00421042  RH  054%=      5-min Rain = 0
KMC1 230449Z 35011KT 04/M04 A3016 RMK A01 T00421043  RH  054%=      5-min Rain = 0
KMC1 230450Z 35010G16KT 04/M04 A3016 RMK A01 T00431043  RH  054%=      5-min Rain = 0
KMC1 230451Z 35010KT 04/M04 A3016 RMK A01 T00421044  RH  054%=      5-min Rain = 0
KMC1 230452Z 34014G19KT 04/M04 A3016 RMK A01 T00431044  RH  053%=      5-min Rain = 0
KMC1 230453Z 35016G23KT 04/M05 A3016 RMK A01 T00421048  RH  052%=      5-min Rain = 0
KMC1 230454Z 34015G20KT 04/M05 A3016 RMK A01 T00421053  RH  050%=      5-min Rain = 0
KMC1 230455Z 33015KT 04/M05 A3016 RMK A01 T00421054  RH  049%=      5-min Rain = 0
KMC1 230456Z 34013KT 04/M06 A3016 RMK A01 T00421055  RH  049%=      5-min Rain = 0
KMC1 230457Z 35015G21KT 04/M06 A3016 RMK A01 T00421055  RH  049%=      5-min Rain = 0
KMC1 230458Z 35017G22KT 04/M06 A3016 RMK A01 T00421056  RH  049%=      5-min Rain = 0
KMC1 230459Z 34014KT 04/M06 A3016 RMK A01 T00421056  RH  049%=      5-min Rain = 0
KMC1 230500Z 35012KT 04/M06 A3016 RMK A01 T00421055  RH  049%=      5-min Rain = 0
KMC1 230501Z 34013G18KT 04/M06 A3016 RMK A01 T00421055  RH  049%=      5-min Rain = 0
KMC1 230502Z 34016KT 04/M06 A3016 RMK A01 T00421055  RH  049%=      5-min Rain = 0
KMC1 230503Z 34016G21KT 04/M06 A3016 RMK A01 T00411056  RH  049%=      5-min Rain = 0
KMC1 230504Z 34017G22KT 04/M06 A3016 RMK A01 T00411057  RH  049%=      5-min Rain = 0
KMC1 230505Z 34014G20KT 04/M06 A3016 RMK A01 T00411057  RH  049%=      5-min Rain = 0
KMC1 230506Z 33014KT 04/M06 A3016 RMK A01 T00411056  RH  049%=      5-min Rain = 0
KMC1 230507Z 34012G17KT 04/M06 A3016 RMK A01 T00411057  RH  049%=      5-min Rain = 0
KMC1 230508Z 35012KT 04/M06 A3016 RMK A01 T00411056  RH  049%=      5-min Rain = 0
KMC1 230509Z 35012G17KT 04/M05 A3016 RMK A01 T00411054  RH  050%=      5-min Rain = 0
KMC1 230510Z 35016KT 04/M06 A3016 RMK A01 T00411055  RH  050%=      5-min Rain = 0
KMC1 230511Z 35014KT 04/M06 A3016 RMK A01 T00411058  RH  048%=      5-min Rain = 0
KMC1 230512Z 35014KT 04/M06 A3016 RMK A01 T00411057  RH  049%=      5-min Rain = 0
KMC1 230513Z 36014KT 04/M06 A3016 RMK A01 T00411057  RH  049%=      5-min Rain = 0
KMC1 230514Z 35012KT 04/M06 A3016 RMK A01 T00411057  RH  049%=      5-min Rain = 0
KMC1 230515Z 35014KT 04/M06 A3016 RMK A01 T00411057  RH  049%=      5-min Rain = 0
KMC1 230516Z 00013G18KT 04/M06 A3016 RMK A01 T00401059  RH  048%=      5-min Rain = 0
KMC1 230517Z 00014G19KT 04/M06 A3016 RMK A01 T00411059  RH  048%=      5-min Rain = 0
KMC1 230518Z 36011G16KT 04/M06 A3016 RMK A01 T00401060  RH  048%=      5-min Rain = 0
KMC1 230519Z 35011KT 04/M06 A3016 RMK A01 T00401059  RH  048%=      5-min Rain = 0
KMC1 230520Z 36014KT 04/M06 A3016 RMK A01 T00411059  RH  048%=      5-min Rain = 0
KMC1 230521Z 35015KT 04/M06 A3016 RMK A01 T00401059  RH  048%=      5-min Rain = 0
KMC1 230522Z 00015G20KT 04/M06 A3016 RMK A01 T00401060  RH  048%=      5-min Rain = 0
KMC1 230523Z 35014G19KT 04/M06 A3016 RMK A01 T00411061  RH  048%=      5-min Rain = 0
KMC1 230524Z 34012G18KT 04/M06 A3016 RMK A01 T00401062  RH  047%=      5-min Rain = 0
KMC1 230525Z 34011KT 04/M06 A3016 RMK A01 T00401062  RH  047%=      5-min Rain = 0
KMC1 230526Z 34015KT 04/M06 A3016 RMK A01 T00401062  RH  047%=      5-min Rain = 0
KMC1 230527Z 35012G19KT 04/M06 A3016 RMK A01 T00401062  RH  047%=      5-min Rain = 0
KMC1 230528Z 35010G15KT 04/M06 A3015 RMK A01 T00401062  RH  047%=      5-min Rain = 0
KMC1 230529Z 36012G18KT 04/M06 A3015 RMK A01 T00401061  RH  048%=      5-min Rain = 0
KMC1 230530Z 35013KT 04/M06 A3015 RMK A01 T00401061  RH  048%=      5-min Rain = 0
KMC1 230531Z 36013G18KT 04/M06 A3015 RMK A01 T00391061  RH  048%=      5-min Rain = 0
KMC1 230532Z 35014KT 04/M06 A3015 RMK A01 T00391062  RH  048%=      5-min Rain = 0
KMC1 230533Z 35014KT 04/M06 A3015 RMK A01 T00391063  RH  047%=      5-min Rain = 0
KMC1 230534Z 35016KT 04/M06 A3015 RMK A01 T00391063  RH  047%=      5-min Rain = 0
KMC1 230535Z 35011KT 04/M06 A3015 RMK A01 T00391064  RH  047%=      5-min Rain = 0
KMC1 230536Z 35014KT 04/M06 A3015 RMK A01 T00391063  RH  047%=      5-min Rain = 0
KMC1 230537Z 35010KT 04/M06 A3015 RMK A01 T00391063  RH  047%=      5-min Rain = 0
KMC1 230538Z 35013KT 04/M06 A3015 RMK A01 T00391063  RH  047%=      5-min Rain = 0
KMC1 230539Z 35013KT 04/M07 A3015 RMK A01 T00381065  RH  047%=      5-min Rain = 0
KMC1 230540Z 35010KT 04/M06 A3015 RMK A01 T00381064  RH  047%=      5-min Rain = 0
KMC1 230541Z 35009KT 04/M06 A3015 RMK A01 T00381063  RH  048%=      5-min Rain = 0
KMC1 230542Z 35010KT 04/M06 A3015 RMK A01 T00381063  RH  048%=      5-min Rain = 0
KMC1 230543Z 35010KT 04/M06 A3015 RMK A01 T00381063  RH  048%=      5-min Rain = 0
KMC1 230544Z 35013KT 04/M06 A3015 RMK A01 T00371064  RH  047%=      5-min Rain = 0
KMC1 230545Z 34015G20KT 04/M07 A3015 RMK A01 T00371065  RH  047%=      5-min Rain = 0
KMC1 230546Z 34013G18KT 04/M07 A3015 RMK A01 T00371067  RH  047%=      5-min Rain = 0
KMC1 230547Z 34010G16KT 04/M07 A3015 RMK A01 T00371067  RH  046%=      5-min Rain = 0
KMC1 230548Z 34009G14KT 04/M07 A3015 RMK A01 T00371066  RH  047%=      5-min Rain = 0
KMC1 230549Z 35015KT 04/M07 A3015 RMK A01 T00361067  RH  047%=      5-min Rain = 0
KMC1 230550Z 34015G21KT 04/M07 A3015 RMK A01 T00361069  RH  046%=      5-min Rain = 0
KMC1 230551Z 35012KT 04/M07 A3015 RMK A01 T00361071  RH  046%=      5-min Rain = 0
KMC1 230552Z 34011KT 04/M07 A3015 RMK A01 T00361071  RH  046%=      5-min Rain = 0
KMC1 230553Z 34012KT 04/M07 A3015 RMK A01 T00361070  RH  046%=      5-min Rain = 0
KMC1 230554Z 35015KT 04/M07 A3015 RMK A01 T00361070  RH  046%=      5-min Rain = 0
KMC1 230555Z 35013KT 04/M07 A3015 RMK A01 T00361071  RH  045%=      5-min Rain = 0
KMC1 230556Z 34011KT 04/M07 A3015 RMK A01 T00361071  RH  045%=      5-min Rain = 0
KMC1 230557Z 35013G20KT 04/M07 A3015 RMK A01 T00361071  RH  046%=      5-min Rain = 0
KMC1 230558Z 34016G23KT 04/M07 A3015 RMK A01 T00351073  RH  045%=      5-min Rain = 0
KMC1 230559Z 34013G19KT 04/M07 A3015 RMK A01 T00351074  RH  045%=      5-min Rain = 0

Page generated in 0.0809 seconds.